<?xml version="1.0" encoding="UTF-8" standalone="no" ?>
<gpx xmlns="http://www.topografix.com/GPX/1/1" xmlns:xsi="http://www.w3.org/2001/XMLSchema-instance" xsi:schemaLocation="http://www.topografix.com/GPX/1/1 http://www.topografix.com/GPX/1/1/gpx.xsd" version="1.1" creator="VisuGPX - https://www.visugpx.com">
  <metadata>
    <name>2022-06-14 Tour du lac Vallon</name>
    <desc><![CDATA[File with points/tracks from Locus Map Pro/3.57.1]]></desc>
  </metadata>
  <trk>
    <name><![CDATA[2022-06-14 Tour du lac Vallon]]></name>
    <extensions>
      <line xmlns="http://www.topografix.com/GPX/gpx_style/0/2">
        <color>0000FF</color>
        <opacity>0.59</opacity>
        <width>6.0</width>
      </line>
    </extensions>
    <trkseg>
      <trkpt lat="46.21905" lon="6.5569">
        <ele>1137.17</ele>
        <time>2022-06-14T07:14:20.000Z</time>
      </trkpt>
      <trkpt lat="46.21893" lon="6.55702">
        <ele>1121.91</ele>
        <time>2022-06-14T07:14:30.000Z</time>
      </trkpt>
      <trkpt lat="46.21887" lon="6.55704">
        <ele>1118.16</ele>
        <time>2022-06-14T07:14:40.000Z</time>
      </trkpt>
      <trkpt lat="46.21886" lon="6.55702">
        <ele>1115.15</ele>
        <time>2022-06-14T07:14:50.000Z</time>
      </trkpt>
      <trkpt lat="46.21885" lon="6.557">
        <ele>1115.14</ele>
        <time>2022-06-14T07:15:00.000Z</time>
      </trkpt>
      <trkpt lat="46.21885" lon="6.55695">
        <ele>1113.46</ele>
        <time>2022-06-14T07:15:10.000Z</time>
      </trkpt>
      <trkpt lat="46.21886" lon="6.55688">
        <ele>1104.23</ele>
        <time>2022-06-14T07:15:20.000Z</time>
      </trkpt>
      <trkpt lat="46.21891" lon="6.55684">
        <ele>1102.14</ele>
        <time>2022-06-14T07:15:30.000Z</time>
      </trkpt>
      <trkpt lat="46.21898" lon="6.55686">
        <ele>1101.16</ele>
        <time>2022-06-14T07:15:40.000Z</time>
      </trkpt>
      <trkpt lat="46.21894" lon="6.55681">
        <ele>1097.83</ele>
        <time>2022-06-14T07:15:50.000Z</time>
      </trkpt>
      <trkpt lat="46.219" lon="6.55666">
        <ele>1097.14</ele>
        <time>2022-06-14T07:16:00.000Z</time>
      </trkpt>
      <trkpt lat="46.21905" lon="6.55654">
        <ele>1098.21</ele>
        <time>2022-06-14T07:16:10.000Z</time>
      </trkpt>
      <trkpt lat="46.2191" lon="6.5564">
        <ele>1098.14</ele>
        <time>2022-06-14T07:16:20.000Z</time>
      </trkpt>
      <trkpt lat="46.21915" lon="6.55635">
        <ele>1099.14</ele>
        <time>2022-06-14T07:16:30.000Z</time>
      </trkpt>
      <trkpt lat="46.21913" lon="6.55638">
        <ele>1099.4</ele>
        <time>2022-06-14T07:16:40.000Z</time>
      </trkpt>
      <trkpt lat="46.21918" lon="6.55646">
        <ele>1099.14</ele>
        <time>2022-06-14T07:16:50.000Z</time>
      </trkpt>
      <trkpt lat="46.21916" lon="6.5566">
        <ele>1098.38</ele>
        <time>2022-06-14T07:17:00.000Z</time>
      </trkpt>
      <trkpt lat="46.21914" lon="6.55666">
        <ele>1099.14</ele>
        <time>2022-06-14T07:17:10.000Z</time>
      </trkpt>
      <trkpt lat="46.21913" lon="6.55665">
        <ele>1098.14</ele>
        <time>2022-06-14T07:17:20.000Z</time>
      </trkpt>
      <trkpt lat="46.21914" lon="6.55663">
        <ele>1099.14</ele>
        <time>2022-06-14T07:17:30.000Z</time>
      </trkpt>
      <trkpt lat="46.21914" lon="6.55662">
        <ele>1100.64</ele>
        <time>2022-06-14T07:17:47.000Z</time>
      </trkpt>
      <trkpt lat="46.21914" lon="6.55665">
        <ele>1103.37</ele>
        <time>2022-06-14T07:17:57.000Z</time>
      </trkpt>
      <trkpt lat="46.21915" lon="6.55667">
        <ele>1102.21</ele>
        <time>2022-06-14T07:18:09.000Z</time>
      </trkpt>
      <trkpt lat="46.21914" lon="6.55673">
        <ele>1103.14</ele>
        <time>2022-06-14T07:18:19.000Z</time>
      </trkpt>
      <trkpt lat="46.21914" lon="6.55671">
        <ele>1102.14</ele>
        <time>2022-06-14T07:18:35.000Z</time>
      </trkpt>
      <trkpt lat="46.21912" lon="6.55669">
        <ele>1102.14</ele>
        <time>2022-06-14T07:18:45.000Z</time>
      </trkpt>
      <trkpt lat="46.21913" lon="6.55666">
        <ele>1103.14</ele>
        <time>2022-06-14T07:18:55.000Z</time>
      </trkpt>
      <trkpt lat="46.21915" lon="6.55664">
        <ele>1102.08</ele>
        <time>2022-06-14T07:19:05.000Z</time>
      </trkpt>
      <trkpt lat="46.21914" lon="6.55664">
        <ele>1102.39</ele>
        <time>2022-06-14T07:19:25.000Z</time>
      </trkpt>
      <trkpt lat="46.21913" lon="6.55662">
        <ele>1100.17</ele>
        <time>2022-06-14T07:19:35.000Z</time>
      </trkpt>
      <trkpt lat="46.21913" lon="6.5566">
        <ele>1102.86</ele>
        <time>2022-06-14T07:19:49.000Z</time>
      </trkpt>
      <trkpt lat="46.21915" lon="6.55661">
        <ele>1106.07</ele>
        <time>2022-06-14T07:19:59.000Z</time>
      </trkpt>
      <trkpt lat="46.21914" lon="6.55664">
        <ele>1106.08</ele>
        <time>2022-06-14T07:20:09.000Z</time>
      </trkpt>
      <trkpt lat="46.21914" lon="6.55667">
        <ele>1109.14</ele>
        <time>2022-06-14T07:20:19.000Z</time>
      </trkpt>
      <trkpt lat="46.21912" lon="6.55669">
        <ele>1109.89</ele>
        <time>2022-06-14T07:20:29.000Z</time>
      </trkpt>
      <trkpt lat="46.21914" lon="6.55663">
        <ele>1107.14</ele>
        <time>2022-06-14T07:20:39.000Z</time>
      </trkpt>
      <trkpt lat="46.21913" lon="6.55661">
        <ele>1107.14</ele>
        <time>2022-06-14T07:20:49.000Z</time>
      </trkpt>
      <trkpt lat="46.21914" lon="6.55662">
        <ele>1107.16</ele>
        <time>2022-06-14T07:21:03.000Z</time>
      </trkpt>
      <trkpt lat="46.21914" lon="6.5566">
        <ele>1107.14</ele>
        <time>2022-06-14T07:21:19.000Z</time>
      </trkpt>
      <trkpt lat="46.21914" lon="6.55662">
        <ele>1107.35</ele>
        <time>2022-06-14T07:21:39.000Z</time>
      </trkpt>
      <trkpt lat="46.21914" lon="6.55663">
        <ele>1109.86</ele>
        <time>2022-06-14T07:21:50.000Z</time>
      </trkpt>
      <trkpt lat="46.21913" lon="6.55661">
        <ele>1110.14</ele>
        <time>2022-06-14T07:22:05.000Z</time>
      </trkpt>
      <trkpt lat="46.21913" lon="6.55659">
        <ele>1111.14</ele>
        <time>2022-06-14T07:22:15.000Z</time>
      </trkpt>
      <trkpt lat="46.21914" lon="6.55656">
        <ele>1111.14</ele>
        <time>2022-06-14T07:22:28.000Z</time>
      </trkpt>
      <trkpt lat="46.21913" lon="6.55653">
        <ele>1110.39</ele>
        <time>2022-06-14T07:22:52.000Z</time>
      </trkpt>
      <trkpt lat="46.21914" lon="6.55651">
        <ele>1108.92</ele>
        <time>2022-06-14T07:23:02.000Z</time>
      </trkpt>
      <trkpt lat="46.21913" lon="6.55652">
        <ele>1110.08</ele>
        <time>2022-06-14T07:23:12.000Z</time>
      </trkpt>
      <trkpt lat="46.21913" lon="6.55655">
        <ele>1113.64</ele>
        <time>2022-06-14T07:23:26.000Z</time>
      </trkpt>
      <trkpt lat="46.21913" lon="6.55653">
        <ele>1111.14</ele>
        <time>2022-06-14T07:23:36.000Z</time>
      </trkpt>
      <trkpt lat="46.21914" lon="6.55654">
        <ele>1111.89</ele>
        <time>2022-06-14T07:24:41.000Z</time>
      </trkpt>
      <trkpt lat="46.21915" lon="6.55654">
        <ele>1115.13</ele>
        <time>2022-06-14T07:24:51.000Z</time>
      </trkpt>
      <trkpt lat="46.21916" lon="6.55656">
        <ele>1116.08</ele>
        <time>2022-06-14T07:25:01.000Z</time>
      </trkpt>
      <trkpt lat="46.21919" lon="6.55674">
        <ele>1113.41</ele>
        <time>2022-06-14T07:25:11.000Z</time>
      </trkpt>
      <trkpt lat="46.21921" lon="6.55691">
        <ele>1107.23</ele>
        <time>2022-06-14T07:25:21.000Z</time>
      </trkpt>
      <trkpt lat="46.21924" lon="6.55703">
        <ele>1107.14</ele>
        <time>2022-06-14T07:25:31.000Z</time>
      </trkpt>
      <trkpt lat="46.21928" lon="6.55712">
        <ele>1109.33</ele>
        <time>2022-06-14T07:25:41.000Z</time>
      </trkpt>
      <trkpt lat="46.21936" lon="6.55719">
        <ele>1111.13</ele>
        <time>2022-06-14T07:25:51.000Z</time>
      </trkpt>
      <trkpt lat="46.21938" lon="6.55727">
        <ele>1113.09</ele>
        <time>2022-06-14T07:26:01.000Z</time>
      </trkpt>
      <trkpt lat="46.21944" lon="6.55734">
        <ele>1112.08</ele>
        <time>2022-06-14T07:26:11.000Z</time>
      </trkpt>
      <trkpt lat="46.2195" lon="6.55737">
        <ele>1115.89</ele>
        <time>2022-06-14T07:26:21.000Z</time>
      </trkpt>
      <trkpt lat="46.21953" lon="6.55737">
        <ele>1117.14</ele>
        <time>2022-06-14T07:26:31.000Z</time>
      </trkpt>
      <trkpt lat="46.21952" lon="6.55736">
        <ele>1116.27</ele>
        <time>2022-06-14T07:26:42.000Z</time>
      </trkpt>
      <trkpt lat="46.21951" lon="6.55734">
        <ele>1117.77</ele>
        <time>2022-06-14T07:26:52.000Z</time>
      </trkpt>
      <trkpt lat="46.2195" lon="6.55732">
        <ele>1118.89</ele>
        <time>2022-06-14T07:27:07.000Z</time>
      </trkpt>
      <trkpt lat="46.21949" lon="6.55732">
        <ele>1119.14</ele>
        <time>2022-06-14T07:27:17.000Z</time>
      </trkpt>
      <trkpt lat="46.21951" lon="6.55734">
        <ele>1118.21</ele>
        <time>2022-06-14T07:27:27.000Z</time>
      </trkpt>
      <trkpt lat="46.21952" lon="6.55734">
        <ele>1118.14</ele>
        <time>2022-06-14T07:27:45.000Z</time>
      </trkpt>
      <trkpt lat="46.2195" lon="6.5573">
        <ele>1119.14</ele>
        <time>2022-06-14T07:27:55.000Z</time>
      </trkpt>
      <trkpt lat="46.21949" lon="6.55732">
        <ele>1118.39</ele>
        <time>2022-06-14T07:28:06.000Z</time>
      </trkpt>
      <trkpt lat="46.2195" lon="6.55734">
        <ele>1116.14</ele>
        <time>2022-06-14T07:28:16.000Z</time>
      </trkpt>
      <trkpt lat="46.2195" lon="6.55732">
        <ele>1118.77</ele>
        <time>2022-06-14T07:28:31.000Z</time>
      </trkpt>
      <trkpt lat="46.21953" lon="6.55729">
        <ele>1121.89</ele>
        <time>2022-06-14T07:28:41.000Z</time>
      </trkpt>
      <trkpt lat="46.21961" lon="6.55716">
        <ele>1121.14</ele>
        <time>2022-06-14T07:28:51.000Z</time>
      </trkpt>
      <trkpt lat="46.21966" lon="6.55713">
        <ele>1123.13</ele>
        <time>2022-06-14T07:29:01.000Z</time>
      </trkpt>
      <trkpt lat="46.21974" lon="6.5571">
        <ele>1121.22</ele>
        <time>2022-06-14T07:29:11.000Z</time>
      </trkpt>
      <trkpt lat="46.21982" lon="6.55717">
        <ele>1120.89</ele>
        <time>2022-06-14T07:29:21.000Z</time>
      </trkpt>
      <trkpt lat="46.21984" lon="6.55727">
        <ele>1124.12</ele>
        <time>2022-06-14T07:29:31.000Z</time>
      </trkpt>
      <trkpt lat="46.21986" lon="6.55738">
        <ele>1128.88</ele>
        <time>2022-06-14T07:29:41.000Z</time>
      </trkpt>
      <trkpt lat="46.21987" lon="6.55748">
        <ele>1132.88</ele>
        <time>2022-06-14T07:29:51.000Z</time>
      </trkpt>
      <trkpt lat="46.21993" lon="6.55763">
        <ele>1134.89</ele>
        <time>2022-06-14T07:30:01.000Z</time>
      </trkpt>
      <trkpt lat="46.21996" lon="6.55774">
        <ele>1136.16</ele>
        <time>2022-06-14T07:30:11.000Z</time>
      </trkpt>
      <trkpt lat="46.21999" lon="6.55782">
        <ele>1131.91</ele>
        <time>2022-06-14T07:30:21.000Z</time>
      </trkpt>
      <trkpt lat="46.22002" lon="6.55788">
        <ele>1130.91</ele>
        <time>2022-06-14T07:30:31.000Z</time>
      </trkpt>
      <trkpt lat="46.22008" lon="6.55793">
        <ele>1130.15</ele>
        <time>2022-06-14T07:30:41.000Z</time>
      </trkpt>
      <trkpt lat="46.22011" lon="6.55797">
        <ele>1131.89</ele>
        <time>2022-06-14T07:30:51.000Z</time>
      </trkpt>
      <trkpt lat="46.22011" lon="6.55798">
        <ele>1132.39</ele>
        <time>2022-06-14T07:31:03.000Z</time>
      </trkpt>
      <trkpt lat="46.2201" lon="6.55797">
        <ele>1134.02</ele>
        <time>2022-06-14T07:31:17.000Z</time>
      </trkpt>
      <trkpt lat="46.22017" lon="6.55789">
        <ele>1136.13</ele>
        <time>2022-06-14T07:31:27.000Z</time>
      </trkpt>
      <trkpt lat="46.22023" lon="6.55779">
        <ele>1138.14</ele>
        <time>2022-06-14T07:31:37.000Z</time>
      </trkpt>
      <trkpt lat="46.22028" lon="6.55774">
        <ele>1139.96</ele>
        <time>2022-06-14T07:31:47.000Z</time>
      </trkpt>
      <trkpt lat="46.22035" lon="6.55764">
        <ele>1139.16</ele>
        <time>2022-06-14T07:31:57.000Z</time>
      </trkpt>
      <trkpt lat="46.22039" lon="6.55751">
        <ele>1140.14</ele>
        <time>2022-06-14T07:32:07.000Z</time>
      </trkpt>
      <trkpt lat="46.22051" lon="6.55753">
        <ele>1137.4</ele>
        <time>2022-06-14T07:32:17.000Z</time>
      </trkpt>
      <trkpt lat="46.22059" lon="6.55754">
        <ele>1140.08</ele>
        <time>2022-06-14T07:32:27.000Z</time>
      </trkpt>
      <trkpt lat="46.2206" lon="6.5576">
        <ele>1141.88</ele>
        <time>2022-06-14T07:32:37.000Z</time>
      </trkpt>
      <trkpt lat="46.22063" lon="6.5576">
        <ele>1143.08</ele>
        <time>2022-06-14T07:32:47.000Z</time>
      </trkpt>
      <trkpt lat="46.22062" lon="6.55757">
        <ele>1145.14</ele>
        <time>2022-06-14T07:32:57.000Z</time>
      </trkpt>
      <trkpt lat="46.22063" lon="6.55753">
        <ele>1148.14</ele>
        <time>2022-06-14T07:33:07.000Z</time>
      </trkpt>
      <trkpt lat="46.22063" lon="6.55751">
        <ele>1150.14</ele>
        <time>2022-06-14T07:33:17.000Z</time>
      </trkpt>
      <trkpt lat="46.22064" lon="6.55747">
        <ele>1149.21</ele>
        <time>2022-06-14T07:33:27.000Z</time>
      </trkpt>
      <trkpt lat="46.22063" lon="6.55751">
        <ele>1148.39</ele>
        <time>2022-06-14T07:33:37.000Z</time>
      </trkpt>
      <trkpt lat="46.22061" lon="6.55751">
        <ele>1149.14</ele>
        <time>2022-06-14T07:33:47.000Z</time>
      </trkpt>
      <trkpt lat="46.22061" lon="6.55759">
        <ele>1146.22</ele>
        <time>2022-06-14T07:33:57.000Z</time>
      </trkpt>
      <trkpt lat="46.22066" lon="6.5577">
        <ele>1144.14</ele>
        <time>2022-06-14T07:34:07.000Z</time>
      </trkpt>
      <trkpt lat="46.22073" lon="6.55781">
        <ele>1143.15</ele>
        <time>2022-06-14T07:34:17.000Z</time>
      </trkpt>
      <trkpt lat="46.22075" lon="6.55784">
        <ele>1142.15</ele>
        <time>2022-06-14T07:34:27.000Z</time>
      </trkpt>
      <trkpt lat="46.22079" lon="6.55789">
        <ele>1143.13</ele>
        <time>2022-06-14T07:34:37.000Z</time>
      </trkpt>
      <trkpt lat="46.22082" lon="6.55794">
        <ele>1146.88</ele>
        <time>2022-06-14T07:34:47.000Z</time>
      </trkpt>
      <trkpt lat="46.22086" lon="6.558">
        <ele>1147.89</ele>
        <time>2022-06-14T07:34:57.000Z</time>
      </trkpt>
      <trkpt lat="46.2209" lon="6.55808">
        <ele>1150.08</ele>
        <time>2022-06-14T07:35:07.000Z</time>
      </trkpt>
      <trkpt lat="46.22094" lon="6.55814">
        <ele>1152.14</ele>
        <time>2022-06-14T07:35:17.000Z</time>
      </trkpt>
      <trkpt lat="46.22097" lon="6.55823">
        <ele>1155.13</ele>
        <time>2022-06-14T07:35:27.000Z</time>
      </trkpt>
      <trkpt lat="46.22101" lon="6.55834">
        <ele>1154.15</ele>
        <time>2022-06-14T07:35:37.000Z</time>
      </trkpt>
      <trkpt lat="46.22105" lon="6.55846">
        <ele>1156.13</ele>
        <time>2022-06-14T07:35:47.000Z</time>
      </trkpt>
      <trkpt lat="46.22101" lon="6.55854">
        <ele>1157.13</ele>
        <time>2022-06-14T07:35:57.000Z</time>
      </trkpt>
      <trkpt lat="46.22102" lon="6.5587">
        <ele>1159.88</ele>
        <time>2022-06-14T07:36:07.000Z</time>
      </trkpt>
      <trkpt lat="46.22099" lon="6.55881">
        <ele>1160.08</ele>
        <time>2022-06-14T07:36:17.000Z</time>
      </trkpt>
      <trkpt lat="46.22096" lon="6.55892">
        <ele>1160.21</ele>
        <time>2022-06-14T07:36:27.000Z</time>
      </trkpt>
      <trkpt lat="46.22091" lon="6.55899">
        <ele>1161.14</ele>
        <time>2022-06-14T07:36:37.000Z</time>
      </trkpt>
      <trkpt lat="46.22088" lon="6.55892">
        <ele>1164.14</ele>
        <time>2022-06-14T07:36:47.000Z</time>
      </trkpt>
      <trkpt lat="46.22093" lon="6.55889">
        <ele>1168.89</ele>
        <time>2022-06-14T07:36:57.000Z</time>
      </trkpt>
      <trkpt lat="46.2209" lon="6.55885">
        <ele>1170.14</ele>
        <time>2022-06-14T07:37:07.000Z</time>
      </trkpt>
      <trkpt lat="46.2209" lon="6.55886">
        <ele>1171.89</ele>
        <time>2022-06-14T07:37:19.000Z</time>
      </trkpt>
      <trkpt lat="46.22085" lon="6.55892">
        <ele>1172.14</ele>
        <time>2022-06-14T07:37:29.000Z</time>
      </trkpt>
      <trkpt lat="46.22081" lon="6.55891">
        <ele>1173.14</ele>
        <time>2022-06-14T07:37:39.000Z</time>
      </trkpt>
      <trkpt lat="46.22079" lon="6.55893">
        <ele>1177.02</ele>
        <time>2022-06-14T07:37:49.000Z</time>
      </trkpt>
      <trkpt lat="46.22076" lon="6.55895">
        <ele>1179.14</ele>
        <time>2022-06-14T07:37:59.000Z</time>
      </trkpt>
      <trkpt lat="46.22079" lon="6.55892">
        <ele>1177.15</ele>
        <time>2022-06-14T07:38:09.000Z</time>
      </trkpt>
      <trkpt lat="46.22079" lon="6.55893">
        <ele>1176.09</ele>
        <time>2022-06-14T07:38:19.000Z</time>
      </trkpt>
      <trkpt lat="46.22078" lon="6.55893">
        <ele>1176.89</ele>
        <time>2022-06-14T07:38:29.000Z</time>
      </trkpt>
      <trkpt lat="46.22083" lon="6.55889">
        <ele>1174.19</ele>
        <time>2022-06-14T07:38:39.000Z</time>
      </trkpt>
      <trkpt lat="46.22084" lon="6.5589">
        <ele>1168.09</ele>
        <time>2022-06-14T07:38:50.000Z</time>
      </trkpt>
      <trkpt lat="46.22083" lon="6.559">
        <ele>1170.14</ele>
        <time>2022-06-14T07:39:00.000Z</time>
      </trkpt>
      <trkpt lat="46.22079" lon="6.55911">
        <ele>1171.14</ele>
        <time>2022-06-14T07:39:10.000Z</time>
      </trkpt>
      <trkpt lat="46.22069" lon="6.55918">
        <ele>1170.41</ele>
        <time>2022-06-14T07:39:20.000Z</time>
      </trkpt>
      <trkpt lat="46.22064" lon="6.55929">
        <ele>1168.14</ele>
        <time>2022-06-14T07:39:30.000Z</time>
      </trkpt>
      <trkpt lat="46.2206" lon="6.55936">
        <ele>1167.2</ele>
        <time>2022-06-14T07:39:40.000Z</time>
      </trkpt>
      <trkpt lat="46.2205" lon="6.55945">
        <ele>1161.68</ele>
        <time>2022-06-14T07:39:50.000Z</time>
      </trkpt>
      <trkpt lat="46.22047" lon="6.55955">
        <ele>1158.16</ele>
        <time>2022-06-14T07:40:00.000Z</time>
      </trkpt>
      <trkpt lat="46.22043" lon="6.55963">
        <ele>1159.1</ele>
        <time>2022-06-14T07:40:10.000Z</time>
      </trkpt>
      <trkpt lat="46.22039" lon="6.55971">
        <ele>1160.14</ele>
        <time>2022-06-14T07:40:20.000Z</time>
      </trkpt>
      <trkpt lat="46.22037" lon="6.5599">
        <ele>1160.14</ele>
        <time>2022-06-14T07:40:30.000Z</time>
      </trkpt>
      <trkpt lat="46.22033" lon="6.55997">
        <ele>1160.13</ele>
        <time>2022-06-14T07:40:40.000Z</time>
      </trkpt>
      <trkpt lat="46.2203" lon="6.56">
        <ele>1162.08</ele>
        <time>2022-06-14T07:40:50.000Z</time>
      </trkpt>
      <trkpt lat="46.22029" lon="6.56003">
        <ele>1162.89</ele>
        <time>2022-06-14T07:41:00.000Z</time>
      </trkpt>
      <trkpt lat="46.22026" lon="6.56016">
        <ele>1165.14</ele>
        <time>2022-06-14T07:41:10.000Z</time>
      </trkpt>
      <trkpt lat="46.22021" lon="6.56025">
        <ele>1166.13</ele>
        <time>2022-06-14T07:41:20.000Z</time>
      </trkpt>
      <trkpt lat="46.22014" lon="6.56036">
        <ele>1168.13</ele>
        <time>2022-06-14T07:41:30.000Z</time>
      </trkpt>
      <trkpt lat="46.22011" lon="6.56043">
        <ele>1169.14</ele>
        <time>2022-06-14T07:41:40.000Z</time>
      </trkpt>
      <trkpt lat="46.22004" lon="6.56046">
        <ele>1170.39</ele>
        <time>2022-06-14T07:41:50.000Z</time>
      </trkpt>
      <trkpt lat="46.21996" lon="6.56054">
        <ele>1173.07</ele>
        <time>2022-06-14T07:42:00.000Z</time>
      </trkpt>
      <trkpt lat="46.21992" lon="6.56059">
        <ele>1175.89</ele>
        <time>2022-06-14T07:42:10.000Z</time>
      </trkpt>
      <trkpt lat="46.21986" lon="6.56071">
        <ele>1179.08</ele>
        <time>2022-06-14T07:42:20.000Z</time>
      </trkpt>
      <trkpt lat="46.21975" lon="6.56079">
        <ele>1181.13</ele>
        <time>2022-06-14T07:42:30.000Z</time>
      </trkpt>
      <trkpt lat="46.21967" lon="6.56088">
        <ele>1182.95</ele>
        <time>2022-06-14T07:42:40.000Z</time>
      </trkpt>
      <trkpt lat="46.21964" lon="6.56096">
        <ele>1184.89</ele>
        <time>2022-06-14T07:42:50.000Z</time>
      </trkpt>
      <trkpt lat="46.21956" lon="6.56099">
        <ele>1187.08</ele>
        <time>2022-06-14T07:43:00.000Z</time>
      </trkpt>
      <trkpt lat="46.21951" lon="6.56104">
        <ele>1189.09</ele>
        <time>2022-06-14T07:43:10.000Z</time>
      </trkpt>
      <trkpt lat="46.21947" lon="6.5611">
        <ele>1193.08</ele>
        <time>2022-06-14T07:43:20.000Z</time>
      </trkpt>
      <trkpt lat="46.21935" lon="6.56113">
        <ele>1195.14</ele>
        <time>2022-06-14T07:43:30.000Z</time>
      </trkpt>
      <trkpt lat="46.21922" lon="6.56117">
        <ele>1195.14</ele>
        <time>2022-06-14T07:43:40.000Z</time>
      </trkpt>
      <trkpt lat="46.21917" lon="6.56128">
        <ele>1198.08</ele>
        <time>2022-06-14T07:43:50.000Z</time>
      </trkpt>
      <trkpt lat="46.21906" lon="6.56136">
        <ele>1200.2</ele>
        <time>2022-06-14T07:44:00.000Z</time>
      </trkpt>
      <trkpt lat="46.21901" lon="6.56142">
        <ele>1202.14</ele>
        <time>2022-06-14T07:44:10.000Z</time>
      </trkpt>
      <trkpt lat="46.21893" lon="6.56144">
        <ele>1205.12</ele>
        <time>2022-06-14T07:44:20.000Z</time>
      </trkpt>
      <trkpt lat="46.21879" lon="6.56151">
        <ele>1202.14</ele>
        <time>2022-06-14T07:44:30.000Z</time>
      </trkpt>
      <trkpt lat="46.21875" lon="6.56159">
        <ele>1204.14</ele>
        <time>2022-06-14T07:44:40.000Z</time>
      </trkpt>
      <trkpt lat="46.21873" lon="6.56167">
        <ele>1203.14</ele>
        <time>2022-06-14T07:44:50.000Z</time>
      </trkpt>
      <trkpt lat="46.21865" lon="6.56172">
        <ele>1203.14</ele>
        <time>2022-06-14T07:45:00.000Z</time>
      </trkpt>
      <trkpt lat="46.21859" lon="6.56173">
        <ele>1209.78</ele>
        <time>2022-06-14T07:45:10.000Z</time>
      </trkpt>
      <trkpt lat="46.21858" lon="6.5617">
        <ele>1211.14</ele>
        <time>2022-06-14T07:45:20.000Z</time>
      </trkpt>
      <trkpt lat="46.21855" lon="6.56173">
        <ele>1213.14</ele>
        <time>2022-06-14T07:46:12.000Z</time>
      </trkpt>
      <trkpt lat="46.21858" lon="6.56173">
        <ele>1210.21</ele>
        <time>2022-06-14T07:46:22.000Z</time>
      </trkpt>
      <trkpt lat="46.21858" lon="6.56172">
        <ele>1213.86</ele>
        <time>2022-06-14T07:46:32.000Z</time>
      </trkpt>
      <trkpt lat="46.21856" lon="6.56172">
        <ele>1215.14</ele>
        <time>2022-06-14T07:46:42.000Z</time>
      </trkpt>
      <trkpt lat="46.21856" lon="6.56179">
        <ele>1216.64</ele>
        <time>2022-06-14T07:47:03.000Z</time>
      </trkpt>
      <trkpt lat="46.21855" lon="6.56175">
        <ele>1217.89</ele>
        <time>2022-06-14T07:47:20.000Z</time>
      </trkpt>
      <trkpt lat="46.21853" lon="6.56173">
        <ele>1219.14</ele>
        <time>2022-06-14T07:47:30.000Z</time>
      </trkpt>
      <trkpt lat="46.21854" lon="6.56174">
        <ele>1219.14</ele>
        <time>2022-06-14T07:47:49.000Z</time>
      </trkpt>
      <trkpt lat="46.21856" lon="6.56174">
        <ele>1220.14</ele>
        <time>2022-06-14T07:47:59.000Z</time>
      </trkpt>
      <trkpt lat="46.21858" lon="6.56177">
        <ele>1221.14</ele>
        <time>2022-06-14T07:48:09.000Z</time>
      </trkpt>
      <trkpt lat="46.21857" lon="6.56175">
        <ele>1222.64</ele>
        <time>2022-06-14T07:48:29.000Z</time>
      </trkpt>
      <trkpt lat="46.21855" lon="6.56182">
        <ele>1223.2</ele>
        <time>2022-06-14T07:48:39.000Z</time>
      </trkpt>
      <trkpt lat="46.21857" lon="6.56185">
        <ele>1223.14</ele>
        <time>2022-06-14T07:48:49.000Z</time>
      </trkpt>
      <trkpt lat="46.21844" lon="6.56195">
        <ele>1222.16</ele>
        <time>2022-06-14T07:48:59.000Z</time>
      </trkpt>
      <trkpt lat="46.21839" lon="6.56207">
        <ele>1222.14</ele>
        <time>2022-06-14T07:49:09.000Z</time>
      </trkpt>
      <trkpt lat="46.21834" lon="6.56213">
        <ele>1220.13</ele>
        <time>2022-06-14T07:49:19.000Z</time>
      </trkpt>
      <trkpt lat="46.21831" lon="6.56218">
        <ele>1217.39</ele>
        <time>2022-06-14T07:49:29.000Z</time>
      </trkpt>
      <trkpt lat="46.2183" lon="6.56222">
        <ele>1214.17</ele>
        <time>2022-06-14T07:49:39.000Z</time>
      </trkpt>
      <trkpt lat="46.21831" lon="6.56235">
        <ele>1210.14</ele>
        <time>2022-06-14T07:49:49.000Z</time>
      </trkpt>
      <trkpt lat="46.21822" lon="6.56242">
        <ele>1209.9</ele>
        <time>2022-06-14T07:49:59.000Z</time>
      </trkpt>
      <trkpt lat="46.21811" lon="6.56249">
        <ele>1209.14</ele>
        <time>2022-06-14T07:50:09.000Z</time>
      </trkpt>
      <trkpt lat="46.2181" lon="6.56258">
        <ele>1206.16</ele>
        <time>2022-06-14T07:50:19.000Z</time>
      </trkpt>
      <trkpt lat="46.21806" lon="6.56259">
        <ele>1206.19</ele>
        <time>2022-06-14T07:50:29.000Z</time>
      </trkpt>
      <trkpt lat="46.21809" lon="6.56261">
        <ele>1209.17</ele>
        <time>2022-06-14T07:50:39.000Z</time>
      </trkpt>
      <trkpt lat="46.21805" lon="6.56273">
        <ele>1208.4</ele>
        <time>2022-06-14T07:50:49.000Z</time>
      </trkpt>
      <trkpt lat="46.21795" lon="6.56293">
        <ele>1194.48</ele>
        <time>2022-06-14T07:50:59.000Z</time>
      </trkpt>
      <trkpt lat="46.21787" lon="6.56307">
        <ele>1188.41</ele>
        <time>2022-06-14T07:51:09.000Z</time>
      </trkpt>
      <trkpt lat="46.21782" lon="6.56321">
        <ele>1188.13</ele>
        <time>2022-06-14T07:51:19.000Z</time>
      </trkpt>
      <trkpt lat="46.2178" lon="6.56335">
        <ele>1186.2</ele>
        <time>2022-06-14T07:51:29.000Z</time>
      </trkpt>
      <trkpt lat="46.21773" lon="6.56345">
        <ele>1187.13</ele>
        <time>2022-06-14T07:51:39.000Z</time>
      </trkpt>
      <trkpt lat="46.21769" lon="6.56355">
        <ele>1189.13</ele>
        <time>2022-06-14T07:51:49.000Z</time>
      </trkpt>
      <trkpt lat="46.21768" lon="6.56363">
        <ele>1189.14</ele>
        <time>2022-06-14T07:51:59.000Z</time>
      </trkpt>
      <trkpt lat="46.21764" lon="6.56365">
        <ele>1190.14</ele>
        <time>2022-06-14T07:52:09.000Z</time>
      </trkpt>
      <trkpt lat="46.21761" lon="6.56372">
        <ele>1187.16</ele>
        <time>2022-06-14T07:52:19.000Z</time>
      </trkpt>
      <trkpt lat="46.21753" lon="6.5638">
        <ele>1186.19</ele>
        <time>2022-06-14T07:52:29.000Z</time>
      </trkpt>
      <trkpt lat="46.21749" lon="6.56389">
        <ele>1187.32</ele>
        <time>2022-06-14T07:52:39.000Z</time>
      </trkpt>
      <trkpt lat="46.21748" lon="6.56399">
        <ele>1187.14</ele>
        <time>2022-06-14T07:52:49.000Z</time>
      </trkpt>
      <trkpt lat="46.2174" lon="6.56407">
        <ele>1188.14</ele>
        <time>2022-06-14T07:52:59.000Z</time>
      </trkpt>
      <trkpt lat="46.21734" lon="6.56417">
        <ele>1187.18</ele>
        <time>2022-06-14T07:53:09.000Z</time>
      </trkpt>
      <trkpt lat="46.21728" lon="6.56424">
        <ele>1188.07</ele>
        <time>2022-06-14T07:53:19.000Z</time>
      </trkpt>
      <trkpt lat="46.21722" lon="6.56432">
        <ele>1189.2</ele>
        <time>2022-06-14T07:53:29.000Z</time>
      </trkpt>
      <trkpt lat="46.21715" lon="6.56442">
        <ele>1188.15</ele>
        <time>2022-06-14T07:53:39.000Z</time>
      </trkpt>
      <trkpt lat="46.2171" lon="6.56453">
        <ele>1188.37</ele>
        <time>2022-06-14T07:53:49.000Z</time>
      </trkpt>
      <trkpt lat="46.21706" lon="6.56464">
        <ele>1187.89</ele>
        <time>2022-06-14T07:53:59.000Z</time>
      </trkpt>
      <trkpt lat="46.21706" lon="6.56471">
        <ele>1190.14</ele>
        <time>2022-06-14T07:54:09.000Z</time>
      </trkpt>
      <trkpt lat="46.21705" lon="6.56474">
        <ele>1191.14</ele>
        <time>2022-06-14T07:54:19.000Z</time>
      </trkpt>
      <trkpt lat="46.21705" lon="6.56473">
        <ele>1192.89</ele>
        <time>2022-06-14T07:55:01.000Z</time>
      </trkpt>
      <trkpt lat="46.21703" lon="6.56472">
        <ele>1193.09</ele>
        <time>2022-06-14T07:55:11.000Z</time>
      </trkpt>
      <trkpt lat="46.21704" lon="6.56472">
        <ele>1191.39</ele>
        <time>2022-06-14T07:56:00.000Z</time>
      </trkpt>
      <trkpt lat="46.21705" lon="6.56471">
        <ele>1192.12</ele>
        <time>2022-06-14T07:56:13.000Z</time>
      </trkpt>
      <trkpt lat="46.21704" lon="6.56471">
        <ele>1192.14</ele>
        <time>2022-06-14T07:56:23.000Z</time>
      </trkpt>
      <trkpt lat="46.21705" lon="6.56473">
        <ele>1191.95</ele>
        <time>2022-06-14T07:56:40.000Z</time>
      </trkpt>
      <trkpt lat="46.21705" lon="6.56484">
        <ele>1192.14</ele>
        <time>2022-06-14T07:56:50.000Z</time>
      </trkpt>
      <trkpt lat="46.217" lon="6.56491">
        <ele>1193.14</ele>
        <time>2022-06-14T07:57:00.000Z</time>
      </trkpt>
      <trkpt lat="46.21696" lon="6.56504">
        <ele>1192.14</ele>
        <time>2022-06-14T07:57:10.000Z</time>
      </trkpt>
      <trkpt lat="46.21694" lon="6.56513">
        <ele>1195.07</ele>
        <time>2022-06-14T07:57:20.000Z</time>
      </trkpt>
      <trkpt lat="46.21691" lon="6.56522">
        <ele>1198.87</ele>
        <time>2022-06-14T07:57:30.000Z</time>
      </trkpt>
      <trkpt lat="46.21689" lon="6.56527">
        <ele>1199.89</ele>
        <time>2022-06-14T07:57:40.000Z</time>
      </trkpt>
      <trkpt lat="46.21686" lon="6.56537">
        <ele>1201.12</ele>
        <time>2022-06-14T07:57:50.000Z</time>
      </trkpt>
      <trkpt lat="46.21685" lon="6.56547">
        <ele>1202.14</ele>
        <time>2022-06-14T07:58:00.000Z</time>
      </trkpt>
      <trkpt lat="46.21688" lon="6.56558">
        <ele>1202.89</ele>
        <time>2022-06-14T07:58:10.000Z</time>
      </trkpt>
      <trkpt lat="46.21685" lon="6.56568">
        <ele>1202.37</ele>
        <time>2022-06-14T07:58:20.000Z</time>
      </trkpt>
      <trkpt lat="46.21685" lon="6.56575">
        <ele>1203.14</ele>
        <time>2022-06-14T07:58:30.000Z</time>
      </trkpt>
      <trkpt lat="46.21683" lon="6.56586">
        <ele>1204.12</ele>
        <time>2022-06-14T07:58:40.000Z</time>
      </trkpt>
      <trkpt lat="46.21681" lon="6.56592">
        <ele>1202.14</ele>
        <time>2022-06-14T07:58:50.000Z</time>
      </trkpt>
      <trkpt lat="46.21682" lon="6.56596">
        <ele>1203.64</ele>
        <time>2022-06-14T07:59:08.000Z</time>
      </trkpt>
      <trkpt lat="46.2168" lon="6.56607">
        <ele>1205.15</ele>
        <time>2022-06-14T07:59:18.000Z</time>
      </trkpt>
      <trkpt lat="46.21681" lon="6.56617">
        <ele>1207.14</ele>
        <time>2022-06-14T07:59:28.000Z</time>
      </trkpt>
      <trkpt lat="46.21679" lon="6.56631">
        <ele>1207.95</ele>
        <time>2022-06-14T07:59:38.000Z</time>
      </trkpt>
      <trkpt lat="46.21679" lon="6.56638">
        <ele>1210.08</ele>
        <time>2022-06-14T07:59:48.000Z</time>
      </trkpt>
      <trkpt lat="46.21679" lon="6.56641">
        <ele>1210.14</ele>
        <time>2022-06-14T07:59:58.000Z</time>
      </trkpt>
      <trkpt lat="46.21679" lon="6.56643">
        <ele>1210.18</ele>
        <time>2022-06-14T08:00:08.000Z</time>
      </trkpt>
      <trkpt lat="46.21679" lon="6.5665">
        <ele>1210.95</ele>
        <time>2022-06-14T08:00:18.000Z</time>
      </trkpt>
      <trkpt lat="46.21677" lon="6.5666">
        <ele>1212.14</ele>
        <time>2022-06-14T08:00:28.000Z</time>
      </trkpt>
      <trkpt lat="46.21678" lon="6.56662">
        <ele>1211.14</ele>
        <time>2022-06-14T08:01:09.000Z</time>
      </trkpt>
      <trkpt lat="46.21679" lon="6.56678">
        <ele>1213.07</ele>
        <time>2022-06-14T08:01:19.000Z</time>
      </trkpt>
      <trkpt lat="46.21679" lon="6.5669">
        <ele>1216.07</ele>
        <time>2022-06-14T08:01:29.000Z</time>
      </trkpt>
      <trkpt lat="46.21678" lon="6.56702">
        <ele>1217.07</ele>
        <time>2022-06-14T08:01:39.000Z</time>
      </trkpt>
      <trkpt lat="46.21678" lon="6.56715">
        <ele>1219.87</ele>
        <time>2022-06-14T08:01:49.000Z</time>
      </trkpt>
      <trkpt lat="46.21677" lon="6.5672">
        <ele>1221.2</ele>
        <time>2022-06-14T08:01:59.000Z</time>
      </trkpt>
      <trkpt lat="46.21676" lon="6.56718">
        <ele>1223.89</ele>
        <time>2022-06-14T08:02:11.000Z</time>
      </trkpt>
      <trkpt lat="46.21674" lon="6.56721">
        <ele>1227.07</ele>
        <time>2022-06-14T08:02:21.000Z</time>
      </trkpt>
      <trkpt lat="46.2167" lon="6.56718">
        <ele>1228.13</ele>
        <time>2022-06-14T08:02:31.000Z</time>
      </trkpt>
      <trkpt lat="46.21673" lon="6.56721">
        <ele>1230.13</ele>
        <time>2022-06-14T08:02:41.000Z</time>
      </trkpt>
      <trkpt lat="46.21675" lon="6.5672">
        <ele>1230.15</ele>
        <time>2022-06-14T08:02:51.000Z</time>
      </trkpt>
      <trkpt lat="46.21675" lon="6.56722">
        <ele>1231.63</ele>
        <time>2022-06-14T08:03:06.000Z</time>
      </trkpt>
      <trkpt lat="46.21673" lon="6.56723">
        <ele>1232.88</ele>
        <time>2022-06-14T08:03:41.000Z</time>
      </trkpt>
      <trkpt lat="46.21674" lon="6.56724">
        <ele>1234.13</ele>
        <time>2022-06-14T08:03:53.000Z</time>
      </trkpt>
      <trkpt lat="46.21675" lon="6.56719">
        <ele>1236.13</ele>
        <time>2022-06-14T08:04:03.000Z</time>
      </trkpt>
      <trkpt lat="46.21677" lon="6.56716">
        <ele>1232.14</ele>
        <time>2022-06-14T08:04:13.000Z</time>
      </trkpt>
      <trkpt lat="46.21678" lon="6.56716">
        <ele>1230.15</ele>
        <time>2022-06-14T08:04:23.000Z</time>
      </trkpt>
      <trkpt lat="46.2168" lon="6.56725">
        <ele>1229.95</ele>
        <time>2022-06-14T08:04:33.000Z</time>
      </trkpt>
      <trkpt lat="46.21679" lon="6.56733">
        <ele>1231.13</ele>
        <time>2022-06-14T08:04:43.000Z</time>
      </trkpt>
      <trkpt lat="46.21674" lon="6.56734">
        <ele>1228.13</ele>
        <time>2022-06-14T08:04:53.000Z</time>
      </trkpt>
      <trkpt lat="46.21674" lon="6.56732">
        <ele>1226.88</ele>
        <time>2022-06-14T08:05:04.000Z</time>
      </trkpt>
      <trkpt lat="46.21671" lon="6.56731">
        <ele>1226.07</ele>
        <time>2022-06-14T08:05:14.000Z</time>
      </trkpt>
      <trkpt lat="46.21671" lon="6.56733">
        <ele>1227.07</ele>
        <time>2022-06-14T08:05:41.000Z</time>
      </trkpt>
      <trkpt lat="46.21674" lon="6.56735">
        <ele>1228.13</ele>
        <time>2022-06-14T08:05:51.000Z</time>
      </trkpt>
      <trkpt lat="46.2168" lon="6.56748">
        <ele>1230.89</ele>
        <time>2022-06-14T08:06:01.000Z</time>
      </trkpt>
      <trkpt lat="46.21681" lon="6.5676">
        <ele>1233.93</ele>
        <time>2022-06-14T08:06:11.000Z</time>
      </trkpt>
      <trkpt lat="46.21679" lon="6.56775">
        <ele>1235.13</ele>
        <time>2022-06-14T08:06:21.000Z</time>
      </trkpt>
      <trkpt lat="46.21678" lon="6.56789">
        <ele>1232.14</ele>
        <time>2022-06-14T08:06:31.000Z</time>
      </trkpt>
      <trkpt lat="46.21675" lon="6.56799">
        <ele>1231.88</ele>
        <time>2022-06-14T08:06:41.000Z</time>
      </trkpt>
      <trkpt lat="46.21677" lon="6.56811">
        <ele>1234.82</ele>
        <time>2022-06-14T08:06:51.000Z</time>
      </trkpt>
      <trkpt lat="46.21676" lon="6.56818">
        <ele>1235.14</ele>
        <time>2022-06-14T08:07:01.000Z</time>
      </trkpt>
      <trkpt lat="46.21679" lon="6.5683">
        <ele>1237.12</ele>
        <time>2022-06-14T08:07:11.000Z</time>
      </trkpt>
      <trkpt lat="46.21681" lon="6.56837">
        <ele>1240.87</ele>
        <time>2022-06-14T08:07:21.000Z</time>
      </trkpt>
      <trkpt lat="46.21686" lon="6.56853">
        <ele>1243.13</ele>
        <time>2022-06-14T08:07:31.000Z</time>
      </trkpt>
      <trkpt lat="46.21687" lon="6.56866">
        <ele>1242.95</ele>
        <time>2022-06-14T08:07:41.000Z</time>
      </trkpt>
      <trkpt lat="46.21687" lon="6.5688">
        <ele>1242.14</ele>
        <time>2022-06-14T08:07:51.000Z</time>
      </trkpt>
      <trkpt lat="46.21684" lon="6.56894">
        <ele>1241.15</ele>
        <time>2022-06-14T08:08:01.000Z</time>
      </trkpt>
      <trkpt lat="46.21685" lon="6.56904">
        <ele>1242.12</ele>
        <time>2022-06-14T08:08:11.000Z</time>
      </trkpt>
      <trkpt lat="46.21687" lon="6.56918">
        <ele>1240.14</ele>
        <time>2022-06-14T08:08:21.000Z</time>
      </trkpt>
      <trkpt lat="46.21689" lon="6.56932">
        <ele>1236.39</ele>
        <time>2022-06-14T08:08:31.000Z</time>
      </trkpt>
      <trkpt lat="46.21687" lon="6.56939">
        <ele>1237.13</ele>
        <time>2022-06-14T08:08:41.000Z</time>
      </trkpt>
      <trkpt lat="46.21683" lon="6.56937">
        <ele>1238.13</ele>
        <time>2022-06-14T08:08:51.000Z</time>
      </trkpt>
      <trkpt lat="46.21682" lon="6.56938">
        <ele>1239.88</ele>
        <time>2022-06-14T08:09:12.000Z</time>
      </trkpt>
      <trkpt lat="46.2168" lon="6.56945">
        <ele>1241.07</ele>
        <time>2022-06-14T08:09:22.000Z</time>
      </trkpt>
      <trkpt lat="46.21684" lon="6.56948">
        <ele>1244.13</ele>
        <time>2022-06-14T08:09:32.000Z</time>
      </trkpt>
      <trkpt lat="46.21686" lon="6.56945">
        <ele>1244.13</ele>
        <time>2022-06-14T08:09:42.000Z</time>
      </trkpt>
      <trkpt lat="46.21685" lon="6.56944">
        <ele>1245.13</ele>
        <time>2022-06-14T08:09:52.000Z</time>
      </trkpt>
      <trkpt lat="46.21681" lon="6.56938">
        <ele>1243.13</ele>
        <time>2022-06-14T08:10:02.000Z</time>
      </trkpt>
      <trkpt lat="46.21683" lon="6.56937">
        <ele>1241.38</ele>
        <time>2022-06-14T08:10:21.000Z</time>
      </trkpt>
      <trkpt lat="46.21686" lon="6.5693">
        <ele>1238.12</ele>
        <time>2022-06-14T08:10:31.000Z</time>
      </trkpt>
      <trkpt lat="46.21685" lon="6.56932">
        <ele>1236.9</ele>
        <time>2022-06-14T08:10:41.000Z</time>
      </trkpt>
      <trkpt lat="46.21683" lon="6.56943">
        <ele>1239.07</ele>
        <time>2022-06-14T08:10:51.000Z</time>
      </trkpt>
      <trkpt lat="46.2168" lon="6.56954">
        <ele>1237.38</ele>
        <time>2022-06-14T08:11:01.000Z</time>
      </trkpt>
      <trkpt lat="46.21679" lon="6.56969">
        <ele>1236.13</ele>
        <time>2022-06-14T08:11:11.000Z</time>
      </trkpt>
      <trkpt lat="46.21674" lon="6.56982">
        <ele>1236.13</ele>
        <time>2022-06-14T08:11:21.000Z</time>
      </trkpt>
      <trkpt lat="46.2167" lon="6.5699">
        <ele>1237.88</ele>
        <time>2022-06-14T08:11:31.000Z</time>
      </trkpt>
      <trkpt lat="46.2167" lon="6.56995">
        <ele>1238.13</ele>
        <time>2022-06-14T08:11:41.000Z</time>
      </trkpt>
      <trkpt lat="46.21665" lon="6.57003">
        <ele>1240.88</ele>
        <time>2022-06-14T08:11:51.000Z</time>
      </trkpt>
      <trkpt lat="46.2166" lon="6.57011">
        <ele>1243.09</ele>
        <time>2022-06-14T08:12:01.000Z</time>
      </trkpt>
      <trkpt lat="46.21657" lon="6.57018">
        <ele>1243.88</ele>
        <time>2022-06-14T08:12:11.000Z</time>
      </trkpt>
      <trkpt lat="46.21652" lon="6.57028">
        <ele>1244.07</ele>
        <time>2022-06-14T08:12:21.000Z</time>
      </trkpt>
      <trkpt lat="46.21647" lon="6.57029">
        <ele>1244.15</ele>
        <time>2022-06-14T08:12:31.000Z</time>
      </trkpt>
      <trkpt lat="46.21643" lon="6.57035">
        <ele>1247.88</ele>
        <time>2022-06-14T08:12:41.000Z</time>
      </trkpt>
      <trkpt lat="46.21635" lon="6.57045">
        <ele>1248.88</ele>
        <time>2022-06-14T08:12:51.000Z</time>
      </trkpt>
      <trkpt lat="46.21624" lon="6.5705">
        <ele>1248.38</ele>
        <time>2022-06-14T08:13:01.000Z</time>
      </trkpt>
      <trkpt lat="46.21619" lon="6.57054">
        <ele>1249.14</ele>
        <time>2022-06-14T08:13:11.000Z</time>
      </trkpt>
      <trkpt lat="46.21618" lon="6.57055">
        <ele>1249.13</ele>
        <time>2022-06-14T08:13:21.000Z</time>
      </trkpt>
      <trkpt lat="46.2161" lon="6.57063">
        <ele>1247.06</ele>
        <time>2022-06-14T08:13:31.000Z</time>
      </trkpt>
      <trkpt lat="46.21605" lon="6.57069">
        <ele>1241.15</ele>
        <time>2022-06-14T08:13:41.000Z</time>
      </trkpt>
      <trkpt lat="46.21605" lon="6.57078">
        <ele>1233.07</ele>
        <time>2022-06-14T08:13:51.000Z</time>
      </trkpt>
      <trkpt lat="46.21603" lon="6.57088">
        <ele>1235.13</ele>
        <time>2022-06-14T08:14:01.000Z</time>
      </trkpt>
      <trkpt lat="46.21607" lon="6.57101">
        <ele>1239.07</ele>
        <time>2022-06-14T08:14:11.000Z</time>
      </trkpt>
      <trkpt lat="46.21607" lon="6.57109">
        <ele>1241.08</ele>
        <time>2022-06-14T08:14:21.000Z</time>
      </trkpt>
      <trkpt lat="46.21606" lon="6.57109">
        <ele>1244.11</ele>
        <time>2022-06-14T08:14:31.000Z</time>
      </trkpt>
      <trkpt lat="46.21608" lon="6.5711">
        <ele>1247.12</ele>
        <time>2022-06-14T08:14:41.000Z</time>
      </trkpt>
      <trkpt lat="46.21607" lon="6.57112">
        <ele>1247.88</ele>
        <time>2022-06-14T08:14:51.000Z</time>
      </trkpt>
      <trkpt lat="46.21607" lon="6.5711">
        <ele>1250.13</ele>
        <time>2022-06-14T08:15:01.000Z</time>
      </trkpt>
      <trkpt lat="46.21611" lon="6.57107">
        <ele>1250.13</ele>
        <time>2022-06-14T08:15:11.000Z</time>
      </trkpt>
      <trkpt lat="46.21608" lon="6.57108">
        <ele>1251.13</ele>
        <time>2022-06-14T08:15:21.000Z</time>
      </trkpt>
      <trkpt lat="46.21608" lon="6.57106">
        <ele>1252.9</ele>
        <time>2022-06-14T08:15:31.000Z</time>
      </trkpt>
      <trkpt lat="46.21609" lon="6.57108">
        <ele>1255.38</ele>
        <time>2022-06-14T08:15:57.000Z</time>
      </trkpt>
      <trkpt lat="46.2161" lon="6.57109">
        <ele>1259.38</ele>
        <time>2022-06-14T08:16:08.000Z</time>
      </trkpt>
      <trkpt lat="46.21609" lon="6.57103">
        <ele>1262.32</ele>
        <time>2022-06-14T08:16:18.000Z</time>
      </trkpt>
      <trkpt lat="46.21608" lon="6.57104">
        <ele>1264.13</ele>
        <time>2022-06-14T08:16:28.000Z</time>
      </trkpt>
      <trkpt lat="46.21606" lon="6.57104">
        <ele>1264.12</ele>
        <time>2022-06-14T08:16:38.000Z</time>
      </trkpt>
      <trkpt lat="46.21599" lon="6.57109">
        <ele>1265.18</ele>
        <time>2022-06-14T08:16:48.000Z</time>
      </trkpt>
      <trkpt lat="46.21592" lon="6.57106">
        <ele>1263.13</ele>
        <time>2022-06-14T08:16:58.000Z</time>
      </trkpt>
      <trkpt lat="46.21586" lon="6.57107">
        <ele>1263.88</ele>
        <time>2022-06-14T08:17:08.000Z</time>
      </trkpt>
      <trkpt lat="46.2158" lon="6.57115">
        <ele>1263.19</ele>
        <time>2022-06-14T08:17:18.000Z</time>
      </trkpt>
      <trkpt lat="46.2158" lon="6.57121">
        <ele>1263.13</ele>
        <time>2022-06-14T08:17:28.000Z</time>
      </trkpt>
      <trkpt lat="46.21574" lon="6.57123">
        <ele>1265.07</ele>
        <time>2022-06-14T08:17:38.000Z</time>
      </trkpt>
      <trkpt lat="46.21567" lon="6.57127">
        <ele>1266.13</ele>
        <time>2022-06-14T08:17:48.000Z</time>
      </trkpt>
      <trkpt lat="46.21559" lon="6.57134">
        <ele>1266.13</ele>
        <time>2022-06-14T08:17:58.000Z</time>
      </trkpt>
      <trkpt lat="46.2156" lon="6.57137">
        <ele>1267.13</ele>
        <time>2022-06-14T08:18:08.000Z</time>
      </trkpt>
      <trkpt lat="46.21561" lon="6.57136">
        <ele>1267.13</ele>
        <time>2022-06-14T08:18:18.000Z</time>
      </trkpt>
      <trkpt lat="46.21559" lon="6.57133">
        <ele>1267.13</ele>
        <time>2022-06-14T08:18:28.000Z</time>
      </trkpt>
      <trkpt lat="46.2156" lon="6.57134">
        <ele>1266.38</ele>
        <time>2022-06-14T08:18:38.000Z</time>
      </trkpt>
      <trkpt lat="46.21566" lon="6.57129">
        <ele>1265.13</ele>
        <time>2022-06-14T08:18:48.000Z</time>
      </trkpt>
      <trkpt lat="46.21567" lon="6.57131">
        <ele>1266.13</ele>
        <time>2022-06-14T08:18:58.000Z</time>
      </trkpt>
      <trkpt lat="46.21549" lon="6.57133">
        <ele>1263.14</ele>
        <time>2022-06-14T08:19:08.000Z</time>
      </trkpt>
      <trkpt lat="46.21549" lon="6.57127">
        <ele>1265.13</ele>
        <time>2022-06-14T08:19:18.000Z</time>
      </trkpt>
      <trkpt lat="46.21558" lon="6.57118">
        <ele>1266.12</ele>
        <time>2022-06-14T08:19:28.000Z</time>
      </trkpt>
      <trkpt lat="46.21552" lon="6.57126">
        <ele>1268.13</ele>
        <time>2022-06-14T08:19:38.000Z</time>
      </trkpt>
      <trkpt lat="46.21553" lon="6.57129">
        <ele>1267.14</ele>
        <time>2022-06-14T08:19:48.000Z</time>
      </trkpt>
      <trkpt lat="46.21554" lon="6.57126">
        <ele>1265.37</ele>
        <time>2022-06-14T08:19:58.000Z</time>
      </trkpt>
      <trkpt lat="46.21556" lon="6.57131">
        <ele>1267.13</ele>
        <time>2022-06-14T08:20:08.000Z</time>
      </trkpt>
      <trkpt lat="46.21559" lon="6.57135">
        <ele>1264.13</ele>
        <time>2022-06-14T08:20:18.000Z</time>
      </trkpt>
      <trkpt lat="46.21557" lon="6.57134">
        <ele>1263.38</ele>
        <time>2022-06-14T08:20:46.000Z</time>
      </trkpt>
      <trkpt lat="46.21559" lon="6.57137">
        <ele>1266.05</ele>
        <time>2022-06-14T08:20:56.000Z</time>
      </trkpt>
      <trkpt lat="46.21562" lon="6.57144">
        <ele>1265.4</ele>
        <time>2022-06-14T08:21:06.000Z</time>
      </trkpt>
      <trkpt lat="46.21561" lon="6.57139">
        <ele>1265.13</ele>
        <time>2022-06-14T08:21:16.000Z</time>
      </trkpt>
      <trkpt lat="46.21561" lon="6.57141">
        <ele>1267.13</ele>
        <time>2022-06-14T08:21:26.000Z</time>
      </trkpt>
      <trkpt lat="46.2156" lon="6.57143">
        <ele>1269.13</ele>
        <time>2022-06-14T08:21:36.000Z</time>
      </trkpt>
      <trkpt lat="46.21557" lon="6.57143">
        <ele>1263.72</ele>
        <time>2022-06-14T08:21:46.000Z</time>
      </trkpt>
      <trkpt lat="46.21554" lon="6.57141">
        <ele>1257.21</ele>
        <time>2022-06-14T08:21:56.000Z</time>
      </trkpt>
      <trkpt lat="46.21551" lon="6.57148">
        <ele>1256.14</ele>
        <time>2022-06-14T08:22:06.000Z</time>
      </trkpt>
      <trkpt lat="46.21542" lon="6.57154">
        <ele>1255.19</ele>
        <time>2022-06-14T08:22:16.000Z</time>
      </trkpt>
      <trkpt lat="46.21536" lon="6.57162">
        <ele>1248.2</ele>
        <time>2022-06-14T08:22:26.000Z</time>
      </trkpt>
      <trkpt lat="46.21528" lon="6.57169">
        <ele>1240.43</ele>
        <time>2022-06-14T08:22:36.000Z</time>
      </trkpt>
      <trkpt lat="46.21523" lon="6.57176">
        <ele>1238.38</ele>
        <time>2022-06-14T08:22:46.000Z</time>
      </trkpt>
      <trkpt lat="46.21516" lon="6.57185">
        <ele>1235.14</ele>
        <time>2022-06-14T08:22:56.000Z</time>
      </trkpt>
      <trkpt lat="46.21509" lon="6.57189">
        <ele>1230.26</ele>
        <time>2022-06-14T08:23:06.000Z</time>
      </trkpt>
      <trkpt lat="46.21503" lon="6.57193">
        <ele>1226.44</ele>
        <time>2022-06-14T08:23:16.000Z</time>
      </trkpt>
      <trkpt lat="46.21493" lon="6.57196">
        <ele>1224.13</ele>
        <time>2022-06-14T08:23:26.000Z</time>
      </trkpt>
      <trkpt lat="46.21487" lon="6.572">
        <ele>1224.15</ele>
        <time>2022-06-14T08:23:36.000Z</time>
      </trkpt>
      <trkpt lat="46.21487" lon="6.57197">
        <ele>1223.15</ele>
        <time>2022-06-14T08:23:46.000Z</time>
      </trkpt>
      <trkpt lat="46.21487" lon="6.57193">
        <ele>1217.13</ele>
        <time>2022-06-14T08:23:56.000Z</time>
      </trkpt>
      <trkpt lat="46.21487" lon="6.57197">
        <ele>1215.22</ele>
        <time>2022-06-14T08:24:06.000Z</time>
      </trkpt>
      <trkpt lat="46.21487" lon="6.57199">
        <ele>1211.19</ele>
        <time>2022-06-14T08:24:17.000Z</time>
      </trkpt>
      <trkpt lat="46.21484" lon="6.57195">
        <ele>1209.25</ele>
        <time>2022-06-14T08:24:27.000Z</time>
      </trkpt>
      <trkpt lat="46.21483" lon="6.57198">
        <ele>1207.13</ele>
        <time>2022-06-14T08:24:37.000Z</time>
      </trkpt>
      <trkpt lat="46.21483" lon="6.57196">
        <ele>1204.88</ele>
        <time>2022-06-14T08:25:08.000Z</time>
      </trkpt>
      <trkpt lat="46.21482" lon="6.57195">
        <ele>1198.15</ele>
        <time>2022-06-14T08:25:18.000Z</time>
      </trkpt>
      <trkpt lat="46.21481" lon="6.57196">
        <ele>1198.88</ele>
        <time>2022-06-14T08:25:43.000Z</time>
      </trkpt>
      <trkpt lat="46.2148" lon="6.57195">
        <ele>1200.13</ele>
        <time>2022-06-14T08:26:13.000Z</time>
      </trkpt>
      <trkpt lat="46.2148" lon="6.57192">
        <ele>1200.88</ele>
        <time>2022-06-14T08:26:33.000Z</time>
      </trkpt>
      <trkpt lat="46.21486" lon="6.57191">
        <ele>1198.19</ele>
        <time>2022-06-14T08:26:43.000Z</time>
      </trkpt>
      <trkpt lat="46.21487" lon="6.57194">
        <ele>1198.38</ele>
        <time>2022-06-14T08:26:58.000Z</time>
      </trkpt>
      <trkpt lat="46.2148" lon="6.57205">
        <ele>1196.46</ele>
        <time>2022-06-14T08:27:08.000Z</time>
      </trkpt>
      <trkpt lat="46.21472" lon="6.57207">
        <ele>1197.38</ele>
        <time>2022-06-14T08:27:18.000Z</time>
      </trkpt>
      <trkpt lat="46.21465" lon="6.57214">
        <ele>1199.12</ele>
        <time>2022-06-14T08:27:28.000Z</time>
      </trkpt>
      <trkpt lat="46.21456" lon="6.57224">
        <ele>1199.38</ele>
        <time>2022-06-14T08:27:38.000Z</time>
      </trkpt>
      <trkpt lat="46.21451" lon="6.57225">
        <ele>1200.13</ele>
        <time>2022-06-14T08:27:48.000Z</time>
      </trkpt>
      <trkpt lat="46.21449" lon="6.57226">
        <ele>1198.38</ele>
        <time>2022-06-14T08:27:58.000Z</time>
      </trkpt>
      <trkpt lat="46.21444" lon="6.57223">
        <ele>1192.26</ele>
        <time>2022-06-14T08:28:08.000Z</time>
      </trkpt>
      <trkpt lat="46.21442" lon="6.57223">
        <ele>1191.13</ele>
        <time>2022-06-14T08:28:18.000Z</time>
      </trkpt>
      <trkpt lat="46.21445" lon="6.57222">
        <ele>1191.32</ele>
        <time>2022-06-14T08:28:28.000Z</time>
      </trkpt>
      <trkpt lat="46.21447" lon="6.57219">
        <ele>1191.15</ele>
        <time>2022-06-14T08:28:38.000Z</time>
      </trkpt>
      <trkpt lat="46.21447" lon="6.57224">
        <ele>1192.13</ele>
        <time>2022-06-14T08:28:48.000Z</time>
      </trkpt>
      <trkpt lat="46.21447" lon="6.57223">
        <ele>1191.13</ele>
        <time>2022-06-14T08:28:58.000Z</time>
      </trkpt>
      <trkpt lat="46.21448" lon="6.57224">
        <ele>1190.38</ele>
        <time>2022-06-14T08:29:10.000Z</time>
      </trkpt>
      <trkpt lat="46.21447" lon="6.57226">
        <ele>1188.38</ele>
        <time>2022-06-14T08:29:21.000Z</time>
      </trkpt>
      <trkpt lat="46.2144" lon="6.57236">
        <ele>1189.13</ele>
        <time>2022-06-14T08:29:31.000Z</time>
      </trkpt>
      <trkpt lat="46.21436" lon="6.57234">
        <ele>1188.16</ele>
        <time>2022-06-14T08:29:41.000Z</time>
      </trkpt>
      <trkpt lat="46.21435" lon="6.57238">
        <ele>1189.88</ele>
        <time>2022-06-14T08:29:51.000Z</time>
      </trkpt>
      <trkpt lat="46.21435" lon="6.5724">
        <ele>1190.13</ele>
        <time>2022-06-14T08:30:11.000Z</time>
      </trkpt>
      <trkpt lat="46.21426" lon="6.57242">
        <ele>1190.08</ele>
        <time>2022-06-14T08:30:21.000Z</time>
      </trkpt>
      <trkpt lat="46.21423" lon="6.5725">
        <ele>1191.13</ele>
        <time>2022-06-14T08:30:31.000Z</time>
      </trkpt>
      <trkpt lat="46.21416" lon="6.57263">
        <ele>1193.13</ele>
        <time>2022-06-14T08:30:41.000Z</time>
      </trkpt>
      <trkpt lat="46.21409" lon="6.57267">
        <ele>1193.12</ele>
        <time>2022-06-14T08:30:51.000Z</time>
      </trkpt>
      <trkpt lat="46.21398" lon="6.57279">
        <ele>1186.63</ele>
        <time>2022-06-14T08:31:01.000Z</time>
      </trkpt>
      <trkpt lat="46.21388" lon="6.57286">
        <ele>1176.28</ele>
        <time>2022-06-14T08:31:11.000Z</time>
      </trkpt>
      <trkpt lat="46.21384" lon="6.57283">
        <ele>1177.13</ele>
        <time>2022-06-14T08:31:21.000Z</time>
      </trkpt>
      <trkpt lat="46.21377" lon="6.57289">
        <ele>1177.13</ele>
        <time>2022-06-14T08:31:31.000Z</time>
      </trkpt>
      <trkpt lat="46.21372" lon="6.57286">
        <ele>1179.13</ele>
        <time>2022-06-14T08:31:41.000Z</time>
      </trkpt>
      <trkpt lat="46.21367" lon="6.57288">
        <ele>1180.13</ele>
        <time>2022-06-14T08:31:51.000Z</time>
      </trkpt>
      <trkpt lat="46.21363" lon="6.57286">
        <ele>1177.13</ele>
        <time>2022-06-14T08:32:01.000Z</time>
      </trkpt>
      <trkpt lat="46.21364" lon="6.57282">
        <ele>1176.13</ele>
        <time>2022-06-14T08:32:11.000Z</time>
      </trkpt>
      <trkpt lat="46.2136" lon="6.57289">
        <ele>1176.14</ele>
        <time>2022-06-14T08:32:21.000Z</time>
      </trkpt>
      <trkpt lat="46.21356" lon="6.57299">
        <ele>1169.4</ele>
        <time>2022-06-14T08:32:31.000Z</time>
      </trkpt>
      <trkpt lat="46.21345" lon="6.57298">
        <ele>1167.13</ele>
        <time>2022-06-14T08:32:41.000Z</time>
      </trkpt>
      <trkpt lat="46.21337" lon="6.5729">
        <ele>1167.18</ele>
        <time>2022-06-14T08:32:51.000Z</time>
      </trkpt>
      <trkpt lat="46.2133" lon="6.57291">
        <ele>1166.36</ele>
        <time>2022-06-14T08:33:01.000Z</time>
      </trkpt>
      <trkpt lat="46.21319" lon="6.57278">
        <ele>1159.77</ele>
        <time>2022-06-14T08:33:11.000Z</time>
      </trkpt>
      <trkpt lat="46.21312" lon="6.57271">
        <ele>1153.94</ele>
        <time>2022-06-14T08:33:21.000Z</time>
      </trkpt>
      <trkpt lat="46.21311" lon="6.57263">
        <ele>1153.13</ele>
        <time>2022-06-14T08:33:31.000Z</time>
      </trkpt>
      <trkpt lat="46.21313" lon="6.57261">
        <ele>1151.82</ele>
        <time>2022-06-14T08:33:41.000Z</time>
      </trkpt>
      <trkpt lat="46.21311" lon="6.57259">
        <ele>1151.13</ele>
        <time>2022-06-14T08:33:51.000Z</time>
      </trkpt>
      <trkpt lat="46.2131" lon="6.57259">
        <ele>1145.14</ele>
        <time>2022-06-14T08:34:01.000Z</time>
      </trkpt>
      <trkpt lat="46.21308" lon="6.5726">
        <ele>1143.38</ele>
        <time>2022-06-14T08:34:36.000Z</time>
      </trkpt>
      <trkpt lat="46.2131" lon="6.57265">
        <ele>1136.82</ele>
        <time>2022-06-14T08:34:46.000Z</time>
      </trkpt>
      <trkpt lat="46.21309" lon="6.57264">
        <ele>1134.07</ele>
        <time>2022-06-14T08:35:08.000Z</time>
      </trkpt>
      <trkpt lat="46.21307" lon="6.57262">
        <ele>1135.13</ele>
        <time>2022-06-14T08:35:18.000Z</time>
      </trkpt>
      <trkpt lat="46.21309" lon="6.57262">
        <ele>1134.88</ele>
        <time>2022-06-14T08:35:33.000Z</time>
      </trkpt>
      <trkpt lat="46.2131" lon="6.57261">
        <ele>1139.1</ele>
        <time>2022-06-14T08:35:43.000Z</time>
      </trkpt>
      <trkpt lat="46.21309" lon="6.57259">
        <ele>1139.13</ele>
        <time>2022-06-14T08:36:14.000Z</time>
      </trkpt>
      <trkpt lat="46.21299" lon="6.57254">
        <ele>1138.13</ele>
        <time>2022-06-14T08:36:24.000Z</time>
      </trkpt>
      <trkpt lat="46.21293" lon="6.57243">
        <ele>1138.07</ele>
        <time>2022-06-14T08:36:34.000Z</time>
      </trkpt>
      <trkpt lat="46.21286" lon="6.57234">
        <ele>1137.19</ele>
        <time>2022-06-14T08:36:44.000Z</time>
      </trkpt>
      <trkpt lat="46.21288" lon="6.57232">
        <ele>1134.38</ele>
        <time>2022-06-14T08:36:58.000Z</time>
      </trkpt>
      <trkpt lat="46.21287" lon="6.57235">
        <ele>1133.16</ele>
        <time>2022-06-14T08:37:33.000Z</time>
      </trkpt>
      <trkpt lat="46.21281" lon="6.57229">
        <ele>1134.13</ele>
        <time>2022-06-14T08:37:43.000Z</time>
      </trkpt>
      <trkpt lat="46.21271" lon="6.57215">
        <ele>1136.06</ele>
        <time>2022-06-14T08:37:53.000Z</time>
      </trkpt>
      <trkpt lat="46.21263" lon="6.57204">
        <ele>1135.14</ele>
        <time>2022-06-14T08:38:03.000Z</time>
      </trkpt>
      <trkpt lat="46.21261" lon="6.57194">
        <ele>1133.63</ele>
        <time>2022-06-14T08:38:13.000Z</time>
      </trkpt>
      <trkpt lat="46.21262" lon="6.57195">
        <ele>1126.15</ele>
        <time>2022-06-14T08:38:23.000Z</time>
      </trkpt>
      <trkpt lat="46.21261" lon="6.57195">
        <ele>1125.13</ele>
        <time>2022-06-14T08:38:37.000Z</time>
      </trkpt>
      <trkpt lat="46.21261" lon="6.57197">
        <ele>1124.38</ele>
        <time>2022-06-14T08:38:53.000Z</time>
      </trkpt>
      <trkpt lat="46.21261" lon="6.57196">
        <ele>1123.13</ele>
        <time>2022-06-14T08:39:03.000Z</time>
      </trkpt>
      <trkpt lat="46.2126" lon="6.57196">
        <ele>1122.38</ele>
        <time>2022-06-14T08:39:15.000Z</time>
      </trkpt>
      <trkpt lat="46.21251" lon="6.57203">
        <ele>1124.12</ele>
        <time>2022-06-14T08:39:25.000Z</time>
      </trkpt>
      <trkpt lat="46.21244" lon="6.57214">
        <ele>1124.88</ele>
        <time>2022-06-14T08:39:35.000Z</time>
      </trkpt>
      <trkpt lat="46.21233" lon="6.57223">
        <ele>1125.88</ele>
        <time>2022-06-14T08:39:45.000Z</time>
      </trkpt>
      <trkpt lat="46.21225" lon="6.57233">
        <ele>1125.13</ele>
        <time>2022-06-14T08:39:55.000Z</time>
      </trkpt>
      <trkpt lat="46.21224" lon="6.57231">
        <ele>1125.38</ele>
        <time>2022-06-14T08:40:05.000Z</time>
      </trkpt>
      <trkpt lat="46.21225" lon="6.57231">
        <ele>1123.63</ele>
        <time>2022-06-14T08:40:49.000Z</time>
      </trkpt>
      <trkpt lat="46.21224" lon="6.57233">
        <ele>1123.14</ele>
        <time>2022-06-14T08:41:52.000Z</time>
      </trkpt>
      <trkpt lat="46.21218" lon="6.57243">
        <ele>1124.13</ele>
        <time>2022-06-14T08:42:02.000Z</time>
      </trkpt>
      <trkpt lat="46.21211" lon="6.57257">
        <ele>1125.12</ele>
        <time>2022-06-14T08:42:12.000Z</time>
      </trkpt>
      <trkpt lat="46.21205" lon="6.57272">
        <ele>1125.32</ele>
        <time>2022-06-14T08:42:22.000Z</time>
      </trkpt>
      <trkpt lat="46.21197" lon="6.57285">
        <ele>1125.13</ele>
        <time>2022-06-14T08:42:32.000Z</time>
      </trkpt>
      <trkpt lat="46.21194" lon="6.57286">
        <ele>1125.13</ele>
        <time>2022-06-14T08:42:42.000Z</time>
      </trkpt>
      <trkpt lat="46.21193" lon="6.57287">
        <ele>1125.13</ele>
        <time>2022-06-14T08:43:04.000Z</time>
      </trkpt>
      <trkpt lat="46.21184" lon="6.57301">
        <ele>1126.13</ele>
        <time>2022-06-14T08:43:14.000Z</time>
      </trkpt>
      <trkpt lat="46.21175" lon="6.57313">
        <ele>1126.88</ele>
        <time>2022-06-14T08:43:24.000Z</time>
      </trkpt>
      <trkpt lat="46.21167" lon="6.57323">
        <ele>1128.13</ele>
        <time>2022-06-14T08:43:34.000Z</time>
      </trkpt>
      <trkpt lat="46.21156" lon="6.57332">
        <ele>1130.87</ele>
        <time>2022-06-14T08:43:44.000Z</time>
      </trkpt>
      <trkpt lat="46.21153" lon="6.57331">
        <ele>1127.19</ele>
        <time>2022-06-14T08:43:54.000Z</time>
      </trkpt>
      <trkpt lat="46.21154" lon="6.5733">
        <ele>1126.12</ele>
        <time>2022-06-14T08:44:04.000Z</time>
      </trkpt>
      <trkpt lat="46.21155" lon="6.57328">
        <ele>1126.88</ele>
        <time>2022-06-14T08:44:42.000Z</time>
      </trkpt>
      <trkpt lat="46.21153" lon="6.57329">
        <ele>1125.88</ele>
        <time>2022-06-14T08:45:11.000Z</time>
      </trkpt>
      <trkpt lat="46.21152" lon="6.57331">
        <ele>1124.92</ele>
        <time>2022-06-14T08:45:29.000Z</time>
      </trkpt>
      <trkpt lat="46.21151" lon="6.57336">
        <ele>1121.39</ele>
        <time>2022-06-14T08:45:39.000Z</time>
      </trkpt>
      <trkpt lat="46.21139" lon="6.57346">
        <ele>1125.06</ele>
        <time>2022-06-14T08:45:49.000Z</time>
      </trkpt>
      <trkpt lat="46.2113" lon="6.57363">
        <ele>1123.14</ele>
        <time>2022-06-14T08:45:59.000Z</time>
      </trkpt>
      <trkpt lat="46.21122" lon="6.57373">
        <ele>1125.07</ele>
        <time>2022-06-14T08:46:09.000Z</time>
      </trkpt>
      <trkpt lat="46.21113" lon="6.57383">
        <ele>1125.12</ele>
        <time>2022-06-14T08:46:19.000Z</time>
      </trkpt>
      <trkpt lat="46.21103" lon="6.57395">
        <ele>1128.06</ele>
        <time>2022-06-14T08:46:29.000Z</time>
      </trkpt>
      <trkpt lat="46.21093" lon="6.57405">
        <ele>1129.12</ele>
        <time>2022-06-14T08:46:39.000Z</time>
      </trkpt>
      <trkpt lat="46.21085" lon="6.57419">
        <ele>1128.14</ele>
        <time>2022-06-14T08:46:49.000Z</time>
      </trkpt>
      <trkpt lat="46.21077" lon="6.57431">
        <ele>1128.36</ele>
        <time>2022-06-14T08:46:59.000Z</time>
      </trkpt>
      <trkpt lat="46.21069" lon="6.5744">
        <ele>1126.88</ele>
        <time>2022-06-14T08:47:09.000Z</time>
      </trkpt>
      <trkpt lat="46.21061" lon="6.57451">
        <ele>1126.89</ele>
        <time>2022-06-14T08:47:19.000Z</time>
      </trkpt>
      <trkpt lat="46.2106" lon="6.57453">
        <ele>1125.12</ele>
        <time>2022-06-14T08:47:29.000Z</time>
      </trkpt>
      <trkpt lat="46.21054" lon="6.57451">
        <ele>1125.13</ele>
        <time>2022-06-14T08:47:39.000Z</time>
      </trkpt>
      <trkpt lat="46.21054" lon="6.5745">
        <ele>1123.13</ele>
        <time>2022-06-14T08:47:49.000Z</time>
      </trkpt>
      <trkpt lat="46.21053" lon="6.57452">
        <ele>1122.18</ele>
        <time>2022-06-14T08:48:23.000Z</time>
      </trkpt>
      <trkpt lat="46.21044" lon="6.57459">
        <ele>1123.12</ele>
        <time>2022-06-14T08:48:33.000Z</time>
      </trkpt>
      <trkpt lat="46.21039" lon="6.57466">
        <ele>1125.11</ele>
        <time>2022-06-14T08:48:43.000Z</time>
      </trkpt>
      <trkpt lat="46.21032" lon="6.57465">
        <ele>1125.12</ele>
        <time>2022-06-14T08:48:53.000Z</time>
      </trkpt>
      <trkpt lat="46.21033" lon="6.57457">
        <ele>1117.87</ele>
        <time>2022-06-14T08:49:03.000Z</time>
      </trkpt>
      <trkpt lat="46.21037" lon="6.57443">
        <ele>1115.19</ele>
        <time>2022-06-14T08:49:13.000Z</time>
      </trkpt>
      <trkpt lat="46.21041" lon="6.5743">
        <ele>1112.36</ele>
        <time>2022-06-14T08:49:23.000Z</time>
      </trkpt>
      <trkpt lat="46.21046" lon="6.57419">
        <ele>1110.12</ele>
        <time>2022-06-14T08:49:33.000Z</time>
      </trkpt>
      <trkpt lat="46.21046" lon="6.57406">
        <ele>1110.86</ele>
        <time>2022-06-14T08:49:43.000Z</time>
      </trkpt>
      <trkpt lat="46.21047" lon="6.57407">
        <ele>1108.13</ele>
        <time>2022-06-14T08:49:53.000Z</time>
      </trkpt>
      <trkpt lat="46.21048" lon="6.57405">
        <ele>1109.12</ele>
        <time>2022-06-14T08:50:03.000Z</time>
      </trkpt>
      <trkpt lat="46.21049" lon="6.57405">
        <ele>1110.12</ele>
        <time>2022-06-14T08:50:13.000Z</time>
      </trkpt>
      <trkpt lat="46.21048" lon="6.57407">
        <ele>1110.87</ele>
        <time>2022-06-14T08:50:23.000Z</time>
      </trkpt>
      <trkpt lat="46.2105" lon="6.57407">
        <ele>1110.14</ele>
        <time>2022-06-14T08:50:33.000Z</time>
      </trkpt>
      <trkpt lat="46.21049" lon="6.57409">
        <ele>1110.87</ele>
        <time>2022-06-14T08:50:50.000Z</time>
      </trkpt>
      <trkpt lat="46.21038" lon="6.57443">
        <ele>1111.87</ele>
        <time>2022-06-14T08:51:00.000Z</time>
      </trkpt>
      <trkpt lat="46.21033" lon="6.57458">
        <ele>1112.37</ele>
        <time>2022-06-14T08:51:10.000Z</time>
      </trkpt>
      <trkpt lat="46.21034" lon="6.5745">
        <ele>1110.37</ele>
        <time>2022-06-14T08:51:20.000Z</time>
      </trkpt>
      <trkpt lat="46.21041" lon="6.5743">
        <ele>1109.36</ele>
        <time>2022-06-14T08:51:30.000Z</time>
      </trkpt>
      <trkpt lat="46.21046" lon="6.57412">
        <ele>1109.13</ele>
        <time>2022-06-14T08:51:40.000Z</time>
      </trkpt>
      <trkpt lat="46.21042" lon="6.57412">
        <ele>1110.12</ele>
        <time>2022-06-14T08:51:50.000Z</time>
      </trkpt>
      <trkpt lat="46.21043" lon="6.5741">
        <ele>1110.37</ele>
        <time>2022-06-14T08:52:02.000Z</time>
      </trkpt>
      <trkpt lat="46.21044" lon="6.57406">
        <ele>1110.12</ele>
        <time>2022-06-14T08:52:12.000Z</time>
      </trkpt>
      <trkpt lat="46.21043" lon="6.57406">
        <ele>1110.12</ele>
        <time>2022-06-14T08:52:22.000Z</time>
      </trkpt>
      <trkpt lat="46.21042" lon="6.57397">
        <ele>1112.12</ele>
        <time>2022-06-14T08:52:32.000Z</time>
      </trkpt>
      <trkpt lat="46.21043" lon="6.57395">
        <ele>1110.62</ele>
        <time>2022-06-14T08:52:47.000Z</time>
      </trkpt>
      <trkpt lat="46.21048" lon="6.57392">
        <ele>1114.81</ele>
        <time>2022-06-14T08:52:57.000Z</time>
      </trkpt>
      <trkpt lat="46.21049" lon="6.57392">
        <ele>1115.12</ele>
        <time>2022-06-14T08:53:07.000Z</time>
      </trkpt>
      <trkpt lat="46.21046" lon="6.57394">
        <ele>1115.12</ele>
        <time>2022-06-14T08:53:17.000Z</time>
      </trkpt>
      <trkpt lat="46.21045" lon="6.57397">
        <ele>1114.11</ele>
        <time>2022-06-14T08:53:27.000Z</time>
      </trkpt>
      <trkpt lat="46.21046" lon="6.57401">
        <ele>1115.08</ele>
        <time>2022-06-14T08:53:37.000Z</time>
      </trkpt>
      <trkpt lat="46.21048" lon="6.57407">
        <ele>1114.12</ele>
        <time>2022-06-14T08:53:47.000Z</time>
      </trkpt>
      <trkpt lat="46.21048" lon="6.57405">
        <ele>1111.13</ele>
        <time>2022-06-14T08:53:57.000Z</time>
      </trkpt>
      <trkpt lat="46.21046" lon="6.57406">
        <ele>1110.19</ele>
        <time>2022-06-14T08:54:07.000Z</time>
      </trkpt>
      <trkpt lat="46.21043" lon="6.57406">
        <ele>1112.06</ele>
        <time>2022-06-14T08:54:17.000Z</time>
      </trkpt>
      <trkpt lat="46.21042" lon="6.574">
        <ele>1113.87</ele>
        <time>2022-06-14T08:54:27.000Z</time>
      </trkpt>
      <trkpt lat="46.21043" lon="6.57403">
        <ele>1115.87</ele>
        <time>2022-06-14T08:54:37.000Z</time>
      </trkpt>
      <trkpt lat="46.21045" lon="6.57404">
        <ele>1117.87</ele>
        <time>2022-06-14T08:54:47.000Z</time>
      </trkpt>
      <trkpt lat="46.21046" lon="6.57407">
        <ele>1115.14</ele>
        <time>2022-06-14T08:54:57.000Z</time>
      </trkpt>
      <trkpt lat="46.21049" lon="6.5741">
        <ele>1112.13</ele>
        <time>2022-06-14T08:55:07.000Z</time>
      </trkpt>
      <trkpt lat="46.21048" lon="6.57409">
        <ele>1111.37</ele>
        <time>2022-06-14T08:55:31.000Z</time>
      </trkpt>
      <trkpt lat="46.21049" lon="6.57411">
        <ele>1111.06</ele>
        <time>2022-06-14T08:55:41.000Z</time>
      </trkpt>
      <trkpt lat="46.21048" lon="6.57411">
        <ele>1113.12</ele>
        <time>2022-06-14T08:55:51.000Z</time>
      </trkpt>
      <trkpt lat="46.21048" lon="6.57409">
        <ele>1115.05</ele>
        <time>2022-06-14T08:56:04.000Z</time>
      </trkpt>
      <trkpt lat="46.21047" lon="6.57407">
        <ele>1113.12</ele>
        <time>2022-06-14T08:56:14.000Z</time>
      </trkpt>
      <trkpt lat="46.21049" lon="6.57407">
        <ele>1110.88</ele>
        <time>2022-06-14T08:56:24.000Z</time>
      </trkpt>
      <trkpt lat="46.21046" lon="6.57406">
        <ele>1111.31</ele>
        <time>2022-06-14T08:56:34.000Z</time>
      </trkpt>
      <trkpt lat="46.21047" lon="6.57402">
        <ele>1112.87</ele>
        <time>2022-06-14T08:56:44.000Z</time>
      </trkpt>
      <trkpt lat="46.21044" lon="6.57399">
        <ele>1114.87</ele>
        <time>2022-06-14T08:56:54.000Z</time>
      </trkpt>
      <trkpt lat="46.21044" lon="6.57396">
        <ele>1117.06</ele>
        <time>2022-06-14T08:57:04.000Z</time>
      </trkpt>
      <trkpt lat="46.21044" lon="6.57394">
        <ele>1117.12</ele>
        <time>2022-06-14T08:57:14.000Z</time>
      </trkpt>
      <trkpt lat="46.21039" lon="6.57393">
        <ele>1109.65</ele>
        <time>2022-06-14T08:57:24.000Z</time>
      </trkpt>
      <trkpt lat="46.2104" lon="6.57392">
        <ele>1109.87</ele>
        <time>2022-06-14T08:57:46.000Z</time>
      </trkpt>
      <trkpt lat="46.21041" lon="6.57392">
        <ele>1112.81</ele>
        <time>2022-06-14T08:57:57.000Z</time>
      </trkpt>
      <trkpt lat="46.21042" lon="6.57392">
        <ele>1112.12</ele>
        <time>2022-06-14T08:58:07.000Z</time>
      </trkpt>
      <trkpt lat="46.21043" lon="6.57394">
        <ele>1112.87</ele>
        <time>2022-06-14T08:58:25.000Z</time>
      </trkpt>
      <trkpt lat="46.21042" lon="6.57395">
        <ele>1113.12</ele>
        <time>2022-06-14T08:58:35.000Z</time>
      </trkpt>
      <trkpt lat="46.21042" lon="6.57391">
        <ele>1111.13</ele>
        <time>2022-06-14T08:58:45.000Z</time>
      </trkpt>
      <trkpt lat="46.21043" lon="6.57391">
        <ele>1113.12</ele>
        <time>2022-06-14T08:58:55.000Z</time>
      </trkpt>
      <trkpt lat="46.21043" lon="6.57392">
        <ele>1113.87</ele>
        <time>2022-06-14T08:59:15.000Z</time>
      </trkpt>
      <trkpt lat="46.21044" lon="6.57395">
        <ele>1116.31</ele>
        <time>2022-06-14T08:59:25.000Z</time>
      </trkpt>
      <trkpt lat="46.21045" lon="6.57392">
        <ele>1112.13</ele>
        <time>2022-06-14T08:59:35.000Z</time>
      </trkpt>
      <trkpt lat="46.21043" lon="6.5739">
        <ele>1112.14</ele>
        <time>2022-06-14T08:59:45.000Z</time>
      </trkpt>
      <trkpt lat="46.21045" lon="6.57389">
        <ele>1112.44</ele>
        <time>2022-06-14T08:59:55.000Z</time>
      </trkpt>
      <trkpt lat="46.21043" lon="6.57389">
        <ele>1112.36</ele>
        <time>2022-06-14T09:00:05.000Z</time>
      </trkpt>
      <trkpt lat="46.21044" lon="6.57389">
        <ele>1113.06</ele>
        <time>2022-06-14T09:00:15.000Z</time>
      </trkpt>
      <trkpt lat="46.21045" lon="6.57388">
        <ele>1111.94</ele>
        <time>2022-06-14T09:00:31.000Z</time>
      </trkpt>
      <trkpt lat="46.21047" lon="6.57389">
        <ele>1113.62</ele>
        <time>2022-06-14T09:00:44.000Z</time>
      </trkpt>
      <trkpt lat="46.21048" lon="6.57385">
        <ele>1115.12</ele>
        <time>2022-06-14T09:00:56.000Z</time>
      </trkpt>
      <trkpt lat="46.21053" lon="6.57371">
        <ele>1113.38</ele>
        <time>2022-06-14T09:01:06.000Z</time>
      </trkpt>
      <trkpt lat="46.21061" lon="6.57362">
        <ele>1114.12</ele>
        <time>2022-06-14T09:01:16.000Z</time>
      </trkpt>
      <trkpt lat="46.21062" lon="6.57365">
        <ele>1113.12</ele>
        <time>2022-06-14T09:01:37.000Z</time>
      </trkpt>
      <trkpt lat="46.2106" lon="6.57364">
        <ele>1114.37</ele>
        <time>2022-06-14T09:01:59.000Z</time>
      </trkpt>
      <trkpt lat="46.21059" lon="6.57364">
        <ele>1111.13</ele>
        <time>2022-06-14T09:02:09.000Z</time>
      </trkpt>
      <trkpt lat="46.21059" lon="6.57366">
        <ele>1113.12</ele>
        <time>2022-06-14T09:02:19.000Z</time>
      </trkpt>
      <trkpt lat="46.2106" lon="6.57368">
        <ele>1111.13</ele>
        <time>2022-06-14T09:02:29.000Z</time>
      </trkpt>
      <trkpt lat="46.2106" lon="6.57367">
        <ele>1111.12</ele>
        <time>2022-06-14T09:03:44.000Z</time>
      </trkpt>
      <trkpt lat="46.21058" lon="6.57369">
        <ele>1110.12</ele>
        <time>2022-06-14T09:03:54.000Z</time>
      </trkpt>
      <trkpt lat="46.21059" lon="6.57369">
        <ele>1109.37</ele>
        <time>2022-06-14T09:04:06.000Z</time>
      </trkpt>
      <trkpt lat="46.21071" lon="6.57355">
        <ele>1110.11</ele>
        <time>2022-06-14T09:04:16.000Z</time>
      </trkpt>
      <trkpt lat="46.21087" lon="6.57345">
        <ele>1110.13</ele>
        <time>2022-06-14T09:04:26.000Z</time>
      </trkpt>
      <trkpt lat="46.21099" lon="6.57334">
        <ele>1110.13</ele>
        <time>2022-06-14T09:04:36.000Z</time>
      </trkpt>
      <trkpt lat="46.21103" lon="6.57317">
        <ele>1110.17</ele>
        <time>2022-06-14T09:04:46.000Z</time>
      </trkpt>
      <trkpt lat="46.21107" lon="6.57301">
        <ele>1109.88</ele>
        <time>2022-06-14T09:04:56.000Z</time>
      </trkpt>
      <trkpt lat="46.21115" lon="6.57288">
        <ele>1110.14</ele>
        <time>2022-06-14T09:05:06.000Z</time>
      </trkpt>
      <trkpt lat="46.21121" lon="6.57276">
        <ele>1111.06</ele>
        <time>2022-06-14T09:05:16.000Z</time>
      </trkpt>
      <trkpt lat="46.21121" lon="6.57271">
        <ele>1111.88</ele>
        <time>2022-06-14T09:05:26.000Z</time>
      </trkpt>
      <trkpt lat="46.2112" lon="6.57273">
        <ele>1113.13</ele>
        <time>2022-06-14T09:05:36.000Z</time>
      </trkpt>
      <trkpt lat="46.21121" lon="6.5725">
        <ele>1112.39</ele>
        <time>2022-06-14T09:05:46.000Z</time>
      </trkpt>
      <trkpt lat="46.21121" lon="6.5723">
        <ele>1111.13</ele>
        <time>2022-06-14T09:05:56.000Z</time>
      </trkpt>
      <trkpt lat="46.21118" lon="6.57213">
        <ele>1112.06</ele>
        <time>2022-06-14T09:06:06.000Z</time>
      </trkpt>
      <trkpt lat="46.21115" lon="6.57197">
        <ele>1114.13</ele>
        <time>2022-06-14T09:06:16.000Z</time>
      </trkpt>
      <trkpt lat="46.21115" lon="6.5718">
        <ele>1114.17</ele>
        <time>2022-06-14T09:06:26.000Z</time>
      </trkpt>
      <trkpt lat="46.2112" lon="6.57159">
        <ele>1110.39</ele>
        <time>2022-06-14T09:06:36.000Z</time>
      </trkpt>
      <trkpt lat="46.21121" lon="6.57147">
        <ele>1110.13</ele>
        <time>2022-06-14T09:06:46.000Z</time>
      </trkpt>
      <trkpt lat="46.21127" lon="6.57138">
        <ele>1109.12</ele>
        <time>2022-06-14T09:06:56.000Z</time>
      </trkpt>
      <trkpt lat="46.2113" lon="6.57134">
        <ele>1109.88</ele>
        <time>2022-06-14T09:07:06.000Z</time>
      </trkpt>
      <trkpt lat="46.21138" lon="6.57122">
        <ele>1109.13</ele>
        <time>2022-06-14T09:07:16.000Z</time>
      </trkpt>
      <trkpt lat="46.21146" lon="6.57114">
        <ele>1110.13</ele>
        <time>2022-06-14T09:07:26.000Z</time>
      </trkpt>
      <trkpt lat="46.21149" lon="6.57101">
        <ele>1109.38</ele>
        <time>2022-06-14T09:07:36.000Z</time>
      </trkpt>
      <trkpt lat="46.21151" lon="6.57085">
        <ele>1106.89</ele>
        <time>2022-06-14T09:07:46.000Z</time>
      </trkpt>
      <trkpt lat="46.21154" lon="6.57071">
        <ele>1106.13</ele>
        <time>2022-06-14T09:07:56.000Z</time>
      </trkpt>
      <trkpt lat="46.21157" lon="6.57058">
        <ele>1104.19</ele>
        <time>2022-06-14T09:08:06.000Z</time>
      </trkpt>
      <trkpt lat="46.21165" lon="6.57042">
        <ele>1102.18</ele>
        <time>2022-06-14T09:08:16.000Z</time>
      </trkpt>
      <trkpt lat="46.21172" lon="6.57028">
        <ele>1103.94</ele>
        <time>2022-06-14T09:08:26.000Z</time>
      </trkpt>
      <trkpt lat="46.21176" lon="6.57012">
        <ele>1102.13</ele>
        <time>2022-06-14T09:08:36.000Z</time>
      </trkpt>
      <trkpt lat="46.21185" lon="6.57">
        <ele>1100.44</ele>
        <time>2022-06-14T09:08:46.000Z</time>
      </trkpt>
      <trkpt lat="46.21194" lon="6.56986">
        <ele>1098.38</ele>
        <time>2022-06-14T09:08:56.000Z</time>
      </trkpt>
      <trkpt lat="46.21198" lon="6.56986">
        <ele>1096.38</ele>
        <time>2022-06-14T09:09:06.000Z</time>
      </trkpt>
      <trkpt lat="46.21199" lon="6.56972">
        <ele>1096.08</ele>
        <time>2022-06-14T09:09:16.000Z</time>
      </trkpt>
      <trkpt lat="46.212" lon="6.56961">
        <ele>1097.13</ele>
        <time>2022-06-14T09:09:26.000Z</time>
      </trkpt>
      <trkpt lat="46.21201" lon="6.56948">
        <ele>1098.13</ele>
        <time>2022-06-14T09:09:36.000Z</time>
      </trkpt>
      <trkpt lat="46.21199" lon="6.56933">
        <ele>1101.8</ele>
        <time>2022-06-14T09:09:46.000Z</time>
      </trkpt>
      <trkpt lat="46.21199" lon="6.56931">
        <ele>1104.07</ele>
        <time>2022-06-14T09:09:58.000Z</time>
      </trkpt>
      <trkpt lat="46.21198" lon="6.56928">
        <ele>1103.63</ele>
        <time>2022-06-14T09:10:10.000Z</time>
      </trkpt>
      <trkpt lat="46.21197" lon="6.56927">
        <ele>1104.88</ele>
        <time>2022-06-14T09:10:23.000Z</time>
      </trkpt>
      <trkpt lat="46.21199" lon="6.56926">
        <ele>1107.13</ele>
        <time>2022-06-14T09:10:33.000Z</time>
      </trkpt>
      <trkpt lat="46.21198" lon="6.56913">
        <ele>1108.93</ele>
        <time>2022-06-14T09:10:43.000Z</time>
      </trkpt>
      <trkpt lat="46.21198" lon="6.56892">
        <ele>1109.13</ele>
        <time>2022-06-14T09:10:53.000Z</time>
      </trkpt>
      <trkpt lat="46.21198" lon="6.56877">
        <ele>1111.07</ele>
        <time>2022-06-14T09:11:03.000Z</time>
      </trkpt>
      <trkpt lat="46.21195" lon="6.5686">
        <ele>1112.31</ele>
        <time>2022-06-14T09:11:13.000Z</time>
      </trkpt>
      <trkpt lat="46.21199" lon="6.56843">
        <ele>1107.19</ele>
        <time>2022-06-14T09:11:23.000Z</time>
      </trkpt>
      <trkpt lat="46.21207" lon="6.56833">
        <ele>1109.82</ele>
        <time>2022-06-14T09:11:33.000Z</time>
      </trkpt>
      <trkpt lat="46.21208" lon="6.56832">
        <ele>1107.88</ele>
        <time>2022-06-14T09:11:57.000Z</time>
      </trkpt>
      <trkpt lat="46.21207" lon="6.56829">
        <ele>1105.08</ele>
        <time>2022-06-14T09:12:07.000Z</time>
      </trkpt>
      <trkpt lat="46.21208" lon="6.56823">
        <ele>1105.88</ele>
        <time>2022-06-14T09:12:17.000Z</time>
      </trkpt>
      <trkpt lat="46.21211" lon="6.56808">
        <ele>1106.13</ele>
        <time>2022-06-14T09:12:27.000Z</time>
      </trkpt>
      <trkpt lat="46.2121" lon="6.56791">
        <ele>1103.13</ele>
        <time>2022-06-14T09:12:37.000Z</time>
      </trkpt>
      <trkpt lat="46.21209" lon="6.56771">
        <ele>1103.36</ele>
        <time>2022-06-14T09:12:47.000Z</time>
      </trkpt>
      <trkpt lat="46.21206" lon="6.56767">
        <ele>1102.13</ele>
        <time>2022-06-14T09:12:57.000Z</time>
      </trkpt>
      <trkpt lat="46.21202" lon="6.56769">
        <ele>1102.94</ele>
        <time>2022-06-14T09:13:07.000Z</time>
      </trkpt>
      <trkpt lat="46.21199" lon="6.5675">
        <ele>1103.38</ele>
        <time>2022-06-14T09:13:17.000Z</time>
      </trkpt>
      <trkpt lat="46.21198" lon="6.56735">
        <ele>1102.19</ele>
        <time>2022-06-14T09:13:27.000Z</time>
      </trkpt>
      <trkpt lat="46.21202" lon="6.56716">
        <ele>1102.38</ele>
        <time>2022-06-14T09:13:37.000Z</time>
      </trkpt>
      <trkpt lat="46.21197" lon="6.567">
        <ele>1107.06</ele>
        <time>2022-06-14T09:13:47.000Z</time>
      </trkpt>
      <trkpt lat="46.21207" lon="6.56671">
        <ele>1107.13</ele>
        <time>2022-06-14T09:13:57.000Z</time>
      </trkpt>
      <trkpt lat="46.21212" lon="6.56649">
        <ele>1104.12</ele>
        <time>2022-06-14T09:14:07.000Z</time>
      </trkpt>
      <trkpt lat="46.2122" lon="6.56635">
        <ele>1102.15</ele>
        <time>2022-06-14T09:14:17.000Z</time>
      </trkpt>
      <trkpt lat="46.21226" lon="6.56629">
        <ele>1101.19</ele>
        <time>2022-06-14T09:14:27.000Z</time>
      </trkpt>
      <trkpt lat="46.21232" lon="6.56619">
        <ele>1103.13</ele>
        <time>2022-06-14T09:14:37.000Z</time>
      </trkpt>
      <trkpt lat="46.21242" lon="6.56614">
        <ele>1097.46</ele>
        <time>2022-06-14T09:14:47.000Z</time>
      </trkpt>
      <trkpt lat="46.21254" lon="6.56605">
        <ele>1097.13</ele>
        <time>2022-06-14T09:14:57.000Z</time>
      </trkpt>
      <trkpt lat="46.21263" lon="6.56596">
        <ele>1098.07</ele>
        <time>2022-06-14T09:15:07.000Z</time>
      </trkpt>
      <trkpt lat="46.21273" lon="6.56585">
        <ele>1099.12</ele>
        <time>2022-06-14T09:15:17.000Z</time>
      </trkpt>
      <trkpt lat="46.21284" lon="6.56583">
        <ele>1098.93</ele>
        <time>2022-06-14T09:15:27.000Z</time>
      </trkpt>
      <trkpt lat="46.2128" lon="6.56583">
        <ele>1098.15</ele>
        <time>2022-06-14T09:15:37.000Z</time>
      </trkpt>
      <trkpt lat="46.21281" lon="6.56583">
        <ele>1101.07</ele>
        <time>2022-06-14T09:15:47.000Z</time>
      </trkpt>
      <trkpt lat="46.21271" lon="6.56574">
        <ele>1102.88</ele>
        <time>2022-06-14T09:15:57.000Z</time>
      </trkpt>
      <trkpt lat="46.2127" lon="6.56558">
        <ele>1098.21</ele>
        <time>2022-06-14T09:16:07.000Z</time>
      </trkpt>
      <trkpt lat="46.2127" lon="6.56562">
        <ele>1093.41</ele>
        <time>2022-06-14T09:16:17.000Z</time>
      </trkpt>
      <trkpt lat="46.21271" lon="6.56562">
        <ele>1092.63</ele>
        <time>2022-06-14T09:16:27.000Z</time>
      </trkpt>
      <trkpt lat="46.21273" lon="6.56559">
        <ele>1093.12</ele>
        <time>2022-06-14T09:16:37.000Z</time>
      </trkpt>
      <trkpt lat="46.21272" lon="6.56557">
        <ele>1094.26</ele>
        <time>2022-06-14T09:16:47.000Z</time>
      </trkpt>
      <trkpt lat="46.21275" lon="6.5654">
        <ele>1093.13</ele>
        <time>2022-06-14T09:16:57.000Z</time>
      </trkpt>
      <trkpt lat="46.21281" lon="6.56523">
        <ele>1091.13</ele>
        <time>2022-06-14T09:17:07.000Z</time>
      </trkpt>
      <trkpt lat="46.21287" lon="6.56505">
        <ele>1093.12</ele>
        <time>2022-06-14T09:17:17.000Z</time>
      </trkpt>
      <trkpt lat="46.21294" lon="6.56491">
        <ele>1092.09</ele>
        <time>2022-06-14T09:17:27.000Z</time>
      </trkpt>
      <trkpt lat="46.21302" lon="6.56474">
        <ele>1092.13</ele>
        <time>2022-06-14T09:17:37.000Z</time>
      </trkpt>
      <trkpt lat="46.21308" lon="6.56458">
        <ele>1092.13</ele>
        <time>2022-06-14T09:17:47.000Z</time>
      </trkpt>
      <trkpt lat="46.21309" lon="6.56456">
        <ele>1092.13</ele>
        <time>2022-06-14T09:17:57.000Z</time>
      </trkpt>
      <trkpt lat="46.21311" lon="6.5645">
        <ele>1091.15</ele>
        <time>2022-06-14T09:18:07.000Z</time>
      </trkpt>
      <trkpt lat="46.21312" lon="6.56445">
        <ele>1093.13</ele>
        <time>2022-06-14T09:18:17.000Z</time>
      </trkpt>
      <trkpt lat="46.21318" lon="6.56438">
        <ele>1094.88</ele>
        <time>2022-06-14T09:18:27.000Z</time>
      </trkpt>
      <trkpt lat="46.2133" lon="6.56427">
        <ele>1093.15</ele>
        <time>2022-06-14T09:18:37.000Z</time>
      </trkpt>
      <trkpt lat="46.21342" lon="6.56415">
        <ele>1090.15</ele>
        <time>2022-06-14T09:18:47.000Z</time>
      </trkpt>
      <trkpt lat="46.21351" lon="6.56398">
        <ele>1091.15</ele>
        <time>2022-06-14T09:18:57.000Z</time>
      </trkpt>
      <trkpt lat="46.21348" lon="6.56385">
        <ele>1090.95</ele>
        <time>2022-06-14T09:19:07.000Z</time>
      </trkpt>
      <trkpt lat="46.21341" lon="6.56375">
        <ele>1091.13</ele>
        <time>2022-06-14T09:19:17.000Z</time>
      </trkpt>
      <trkpt lat="46.21335" lon="6.56375">
        <ele>1090.37</ele>
        <time>2022-06-14T09:19:27.000Z</time>
      </trkpt>
      <trkpt lat="46.21323" lon="6.56373">
        <ele>1093.11</ele>
        <time>2022-06-14T09:19:37.000Z</time>
      </trkpt>
      <trkpt lat="46.2131" lon="6.56374">
        <ele>1096.12</ele>
        <time>2022-06-14T09:19:47.000Z</time>
      </trkpt>
      <trkpt lat="46.21306" lon="6.56376">
        <ele>1098.05</ele>
        <time>2022-06-14T09:19:57.000Z</time>
      </trkpt>
      <trkpt lat="46.21294" lon="6.56379">
        <ele>1098.01</ele>
        <time>2022-06-14T09:20:07.000Z</time>
      </trkpt>
      <trkpt lat="46.2129" lon="6.56377">
        <ele>1098.07</ele>
        <time>2022-06-14T09:20:17.000Z</time>
      </trkpt>
      <trkpt lat="46.21286" lon="6.56373">
        <ele>1102.12</ele>
        <time>2022-06-14T09:20:27.000Z</time>
      </trkpt>
      <trkpt lat="46.21278" lon="6.56372">
        <ele>1102.32</ele>
        <time>2022-06-14T09:20:37.000Z</time>
      </trkpt>
      <trkpt lat="46.21278" lon="6.56359">
        <ele>1100.15</ele>
        <time>2022-06-14T09:20:47.000Z</time>
      </trkpt>
      <trkpt lat="46.21277" lon="6.5636">
        <ele>1101.13</ele>
        <time>2022-06-14T09:20:57.000Z</time>
      </trkpt>
      <trkpt lat="46.21281" lon="6.56358">
        <ele>1102.13</ele>
        <time>2022-06-14T09:21:07.000Z</time>
      </trkpt>
      <trkpt lat="46.21284" lon="6.56359">
        <ele>1102.13</ele>
        <time>2022-06-14T09:21:17.000Z</time>
      </trkpt>
      <trkpt lat="46.21285" lon="6.56361">
        <ele>1103.88</ele>
        <time>2022-06-14T09:21:31.000Z</time>
      </trkpt>
      <trkpt lat="46.21284" lon="6.56382">
        <ele>1105.13</ele>
        <time>2022-06-14T09:21:41.000Z</time>
      </trkpt>
      <trkpt lat="46.21289" lon="6.56378">
        <ele>1107.38</ele>
        <time>2022-06-14T09:21:57.000Z</time>
      </trkpt>
      <trkpt lat="46.21271" lon="6.56401">
        <ele>1122.95</ele>
        <time>2022-06-14T09:22:20.000Z</time>
      </trkpt>
      <trkpt lat="46.21281" lon="6.5638">
        <ele>1107.12</ele>
        <time>2022-06-14T09:22:30.000Z</time>
      </trkpt>
      <trkpt lat="46.21286" lon="6.56377">
        <ele>1117.02</ele>
        <time>2022-06-14T09:22:40.000Z</time>
      </trkpt>
      <trkpt lat="46.2129" lon="6.56375">
        <ele>1108.38</ele>
        <time>2022-06-14T09:22:52.000Z</time>
      </trkpt>
      <trkpt lat="46.21285" lon="6.56372">
        <ele>1106.94</ele>
        <time>2022-06-14T09:23:02.000Z</time>
      </trkpt>
      <trkpt lat="46.21284" lon="6.56366">
        <ele>1098.7</ele>
        <time>2022-06-14T09:23:12.000Z</time>
      </trkpt>
      <trkpt lat="46.21278" lon="6.56361">
        <ele>1097.13</ele>
        <time>2022-06-14T09:23:22.000Z</time>
      </trkpt>
      <trkpt lat="46.21284" lon="6.56355">
        <ele>1099.13</ele>
        <time>2022-06-14T09:23:32.000Z</time>
      </trkpt>
      <trkpt lat="46.21283" lon="6.56355">
        <ele>1099.13</ele>
        <time>2022-06-14T09:23:58.000Z</time>
      </trkpt>
      <trkpt lat="46.21283" lon="6.56353">
        <ele>1099.4</ele>
        <time>2022-06-14T09:24:11.000Z</time>
      </trkpt>
      <trkpt lat="46.21288" lon="6.56353">
        <ele>1100.09</ele>
        <time>2022-06-14T09:24:21.000Z</time>
      </trkpt>
      <trkpt lat="46.21289" lon="6.56351">
        <ele>1101.13</ele>
        <time>2022-06-14T09:24:31.000Z</time>
      </trkpt>
      <trkpt lat="46.21282" lon="6.56348">
        <ele>1101.45</ele>
        <time>2022-06-14T09:24:41.000Z</time>
      </trkpt>
      <trkpt lat="46.21285" lon="6.5633">
        <ele>1099.93</ele>
        <time>2022-06-14T09:24:51.000Z</time>
      </trkpt>
      <trkpt lat="46.21289" lon="6.56323">
        <ele>1101.12</ele>
        <time>2022-06-14T09:25:01.000Z</time>
      </trkpt>
      <trkpt lat="46.21288" lon="6.56308">
        <ele>1099.38</ele>
        <time>2022-06-14T09:25:11.000Z</time>
      </trkpt>
      <trkpt lat="46.21287" lon="6.56294">
        <ele>1101.07</ele>
        <time>2022-06-14T09:25:21.000Z</time>
      </trkpt>
      <trkpt lat="46.21284" lon="6.56281">
        <ele>1101.9</ele>
        <time>2022-06-14T09:25:31.000Z</time>
      </trkpt>
      <trkpt lat="46.21283" lon="6.56278">
        <ele>1099.37</ele>
        <time>2022-06-14T09:25:41.000Z</time>
      </trkpt>
      <trkpt lat="46.21277" lon="6.5627">
        <ele>1099.13</ele>
        <time>2022-06-14T09:25:51.000Z</time>
      </trkpt>
      <trkpt lat="46.21277" lon="6.56251">
        <ele>1098.33</ele>
        <time>2022-06-14T09:26:01.000Z</time>
      </trkpt>
      <trkpt lat="46.21283" lon="6.5624">
        <ele>1100.13</ele>
        <time>2022-06-14T09:26:11.000Z</time>
      </trkpt>
      <trkpt lat="46.21294" lon="6.56232">
        <ele>1096.26</ele>
        <time>2022-06-14T09:26:21.000Z</time>
      </trkpt>
      <trkpt lat="46.21314" lon="6.56218">
        <ele>1097.32</ele>
        <time>2022-06-14T09:26:31.000Z</time>
      </trkpt>
      <trkpt lat="46.21331" lon="6.56209">
        <ele>1099.68</ele>
        <time>2022-06-14T09:26:41.000Z</time>
      </trkpt>
      <trkpt lat="46.21331" lon="6.56212">
        <ele>1099.14</ele>
        <time>2022-06-14T09:26:51.000Z</time>
      </trkpt>
      <trkpt lat="46.21333" lon="6.56215">
        <ele>1101.12</ele>
        <time>2022-06-14T09:27:01.000Z</time>
      </trkpt>
      <trkpt lat="46.21333" lon="6.56217">
        <ele>1101.14</ele>
        <time>2022-06-14T09:27:11.000Z</time>
      </trkpt>
      <trkpt lat="46.21332" lon="6.56216">
        <ele>1100.39</ele>
        <time>2022-06-14T09:27:21.000Z</time>
      </trkpt>
      <trkpt lat="46.21332" lon="6.56214">
        <ele>1102.12</ele>
        <time>2022-06-14T09:27:32.000Z</time>
      </trkpt>
      <trkpt lat="46.21333" lon="6.56206">
        <ele>1101.14</ele>
        <time>2022-06-14T09:27:42.000Z</time>
      </trkpt>
      <trkpt lat="46.21333" lon="6.5621">
        <ele>1103.12</ele>
        <time>2022-06-14T09:27:52.000Z</time>
      </trkpt>
      <trkpt lat="46.21333" lon="6.56212">
        <ele>1101.64</ele>
        <time>2022-06-14T09:28:03.000Z</time>
      </trkpt>
      <trkpt lat="46.21339" lon="6.56205">
        <ele>1100.89</ele>
        <time>2022-06-14T09:28:13.000Z</time>
      </trkpt>
      <trkpt lat="46.21348" lon="6.56203">
        <ele>1099.95</ele>
        <time>2022-06-14T09:28:23.000Z</time>
      </trkpt>
      <trkpt lat="46.21347" lon="6.56202">
        <ele>1101.64</ele>
        <time>2022-06-14T09:28:36.000Z</time>
      </trkpt>
      <trkpt lat="46.21348" lon="6.56204">
        <ele>1102.14</ele>
        <time>2022-06-14T09:28:46.000Z</time>
      </trkpt>
      <trkpt lat="46.21348" lon="6.56202">
        <ele>1102.89</ele>
        <time>2022-06-14T09:29:31.000Z</time>
      </trkpt>
      <trkpt lat="46.21361" lon="6.56194">
        <ele>1102.12</ele>
        <time>2022-06-14T09:29:41.000Z</time>
      </trkpt>
      <trkpt lat="46.21369" lon="6.56188">
        <ele>1100.14</ele>
        <time>2022-06-14T09:29:51.000Z</time>
      </trkpt>
      <trkpt lat="46.2137" lon="6.56189">
        <ele>1101.14</ele>
        <time>2022-06-14T09:30:01.000Z</time>
      </trkpt>
      <trkpt lat="46.21379" lon="6.56186">
        <ele>1100.14</ele>
        <time>2022-06-14T09:30:11.000Z</time>
      </trkpt>
      <trkpt lat="46.2139" lon="6.56177">
        <ele>1098.2</ele>
        <time>2022-06-14T09:30:21.000Z</time>
      </trkpt>
      <trkpt lat="46.21404" lon="6.56174">
        <ele>1097.39</ele>
        <time>2022-06-14T09:30:31.000Z</time>
      </trkpt>
      <trkpt lat="46.21417" lon="6.56168">
        <ele>1096.14</ele>
        <time>2022-06-14T09:30:41.000Z</time>
      </trkpt>
      <trkpt lat="46.21426" lon="6.56169">
        <ele>1096.15</ele>
        <time>2022-06-14T09:30:51.000Z</time>
      </trkpt>
      <trkpt lat="46.21428" lon="6.56165">
        <ele>1096.19</ele>
        <time>2022-06-14T09:31:01.000Z</time>
      </trkpt>
      <trkpt lat="46.21427" lon="6.56167">
        <ele>1097.64</ele>
        <time>2022-06-14T09:31:23.000Z</time>
      </trkpt>
      <trkpt lat="46.21425" lon="6.56169">
        <ele>1096.14</ele>
        <time>2022-06-14T09:31:33.000Z</time>
      </trkpt>
      <trkpt lat="46.21424" lon="6.56167">
        <ele>1094.38</ele>
        <time>2022-06-14T09:31:45.000Z</time>
      </trkpt>
      <trkpt lat="46.21426" lon="6.56166">
        <ele>1094.07</ele>
        <time>2022-06-14T09:31:55.000Z</time>
      </trkpt>
      <trkpt lat="46.21423" lon="6.56172">
        <ele>1093.15</ele>
        <time>2022-06-14T09:32:05.000Z</time>
      </trkpt>
      <trkpt lat="46.21425" lon="6.56172">
        <ele>1092.14</ele>
        <time>2022-06-14T09:32:15.000Z</time>
      </trkpt>
      <trkpt lat="46.21419" lon="6.56168">
        <ele>1092.14</ele>
        <time>2022-06-14T09:32:25.000Z</time>
      </trkpt>
      <trkpt lat="46.2141" lon="6.56154">
        <ele>1092.87</ele>
        <time>2022-06-14T09:32:35.000Z</time>
      </trkpt>
      <trkpt lat="46.21412" lon="6.56139">
        <ele>1093.07</ele>
        <time>2022-06-14T09:32:45.000Z</time>
      </trkpt>
      <trkpt lat="46.21411" lon="6.56136">
        <ele>1092.2</ele>
        <time>2022-06-14T09:32:58.000Z</time>
      </trkpt>
      <trkpt lat="46.21406" lon="6.5613">
        <ele>1091.08</ele>
        <time>2022-06-14T09:33:08.000Z</time>
      </trkpt>
      <trkpt lat="46.21406" lon="6.56119">
        <ele>1092.07</ele>
        <time>2022-06-14T09:33:18.000Z</time>
      </trkpt>
      <trkpt lat="46.21407" lon="6.56116">
        <ele>1094.13</ele>
        <time>2022-06-14T09:33:28.000Z</time>
      </trkpt>
      <trkpt lat="46.21408" lon="6.56116">
        <ele>1095.64</ele>
        <time>2022-06-14T09:33:40.000Z</time>
      </trkpt>
      <trkpt lat="46.21411" lon="6.56101">
        <ele>1095.14</ele>
        <time>2022-06-14T09:33:50.000Z</time>
      </trkpt>
      <trkpt lat="46.21413" lon="6.56079">
        <ele>1094.9</ele>
        <time>2022-06-14T09:34:00.000Z</time>
      </trkpt>
      <trkpt lat="46.21417" lon="6.56063">
        <ele>1094.9</ele>
        <time>2022-06-14T09:34:10.000Z</time>
      </trkpt>
      <trkpt lat="46.2142" lon="6.56047">
        <ele>1095.89</ele>
        <time>2022-06-14T09:34:20.000Z</time>
      </trkpt>
      <trkpt lat="46.21421" lon="6.56035">
        <ele>1094.14</ele>
        <time>2022-06-14T09:34:30.000Z</time>
      </trkpt>
      <trkpt lat="46.21422" lon="6.56034">
        <ele>1094.14</ele>
        <time>2022-06-14T09:34:45.000Z</time>
      </trkpt>
      <trkpt lat="46.21422" lon="6.56031">
        <ele>1093.39</ele>
        <time>2022-06-14T09:34:55.000Z</time>
      </trkpt>
      <trkpt lat="46.21422" lon="6.56022">
        <ele>1092.15</ele>
        <time>2022-06-14T09:35:05.000Z</time>
      </trkpt>
      <trkpt lat="46.21424" lon="6.56024">
        <ele>1092.37</ele>
        <time>2022-06-14T09:35:15.000Z</time>
      </trkpt>
      <trkpt lat="46.21426" lon="6.56013">
        <ele>1092.32</ele>
        <time>2022-06-14T09:35:25.000Z</time>
      </trkpt>
      <trkpt lat="46.21434" lon="6.55999">
        <ele>1092.14</ele>
        <time>2022-06-14T09:35:35.000Z</time>
      </trkpt>
      <trkpt lat="46.21445" lon="6.55988">
        <ele>1093.89</ele>
        <time>2022-06-14T09:35:45.000Z</time>
      </trkpt>
      <trkpt lat="46.21455" lon="6.55979">
        <ele>1093.15</ele>
        <time>2022-06-14T09:35:55.000Z</time>
      </trkpt>
      <trkpt lat="46.2146" lon="6.55973">
        <ele>1091.14</ele>
        <time>2022-06-14T09:36:05.000Z</time>
      </trkpt>
      <trkpt lat="46.2147" lon="6.5597">
        <ele>1090.14</ele>
        <time>2022-06-14T09:36:15.000Z</time>
      </trkpt>
      <trkpt lat="46.21481" lon="6.55966">
        <ele>1089.14</ele>
        <time>2022-06-14T09:36:25.000Z</time>
      </trkpt>
      <trkpt lat="46.21488" lon="6.55963">
        <ele>1089.14</ele>
        <time>2022-06-14T09:36:35.000Z</time>
      </trkpt>
      <trkpt lat="46.21487" lon="6.55961">
        <ele>1088.39</ele>
        <time>2022-06-14T09:36:49.000Z</time>
      </trkpt>
      <trkpt lat="46.2149" lon="6.55962">
        <ele>1089.12</ele>
        <time>2022-06-14T09:36:59.000Z</time>
      </trkpt>
      <trkpt lat="46.21488" lon="6.55961">
        <ele>1090.64</ele>
        <time>2022-06-14T09:37:20.000Z</time>
      </trkpt>
      <trkpt lat="46.21486" lon="6.55946">
        <ele>1090.14</ele>
        <time>2022-06-14T09:37:30.000Z</time>
      </trkpt>
      <trkpt lat="46.21493" lon="6.55937">
        <ele>1091.14</ele>
        <time>2022-06-14T09:37:40.000Z</time>
      </trkpt>
      <trkpt lat="46.21499" lon="6.55921">
        <ele>1091.39</ele>
        <time>2022-06-14T09:37:50.000Z</time>
      </trkpt>
      <trkpt lat="46.21501" lon="6.55912">
        <ele>1090.08</ele>
        <time>2022-06-14T09:38:00.000Z</time>
      </trkpt>
      <trkpt lat="46.215" lon="6.55903">
        <ele>1089.14</ele>
        <time>2022-06-14T09:38:10.000Z</time>
      </trkpt>
      <trkpt lat="46.21491" lon="6.55891">
        <ele>1088.37</ele>
        <time>2022-06-14T09:38:20.000Z</time>
      </trkpt>
      <trkpt lat="46.2149" lon="6.55889">
        <ele>1089.14</ele>
        <time>2022-06-14T09:38:30.000Z</time>
      </trkpt>
      <trkpt lat="46.21488" lon="6.55889">
        <ele>1087.45</ele>
        <time>2022-06-14T09:38:41.000Z</time>
      </trkpt>
      <trkpt lat="46.21475" lon="6.55889">
        <ele>1088.13</ele>
        <time>2022-06-14T09:38:51.000Z</time>
      </trkpt>
      <trkpt lat="46.21468" lon="6.55888">
        <ele>1088.14</ele>
        <time>2022-06-14T09:39:01.000Z</time>
      </trkpt>
      <trkpt lat="46.21456" lon="6.55883">
        <ele>1086.38</ele>
        <time>2022-06-14T09:39:11.000Z</time>
      </trkpt>
      <trkpt lat="46.21449" lon="6.55873">
        <ele>1086.89</ele>
        <time>2022-06-14T09:39:21.000Z</time>
      </trkpt>
      <trkpt lat="46.21452" lon="6.55857">
        <ele>1088.19</ele>
        <time>2022-06-14T09:39:31.000Z</time>
      </trkpt>
      <trkpt lat="46.21456" lon="6.55841">
        <ele>1091.07</ele>
        <time>2022-06-14T09:39:41.000Z</time>
      </trkpt>
      <trkpt lat="46.21459" lon="6.55829">
        <ele>1094.08</ele>
        <time>2022-06-14T09:39:51.000Z</time>
      </trkpt>
      <trkpt lat="46.21461" lon="6.55819">
        <ele>1095.38</ele>
        <time>2022-06-14T09:40:01.000Z</time>
      </trkpt>
      <trkpt lat="46.21466" lon="6.55808">
        <ele>1096.15</ele>
        <time>2022-06-14T09:40:11.000Z</time>
      </trkpt>
      <trkpt lat="46.2147" lon="6.558">
        <ele>1096.14</ele>
        <time>2022-06-14T09:40:21.000Z</time>
      </trkpt>
      <trkpt lat="46.21473" lon="6.55785">
        <ele>1097.2</ele>
        <time>2022-06-14T09:40:31.000Z</time>
      </trkpt>
      <trkpt lat="46.21478" lon="6.55774">
        <ele>1098.08</ele>
        <time>2022-06-14T09:40:41.000Z</time>
      </trkpt>
      <trkpt lat="46.21483" lon="6.55765">
        <ele>1099.14</ele>
        <time>2022-06-14T09:40:51.000Z</time>
      </trkpt>
      <trkpt lat="46.21483" lon="6.55756">
        <ele>1100.2</ele>
        <time>2022-06-14T09:41:01.000Z</time>
      </trkpt>
      <trkpt lat="46.21488" lon="6.55756">
        <ele>1098.17</ele>
        <time>2022-06-14T09:41:11.000Z</time>
      </trkpt>
      <trkpt lat="46.21483" lon="6.55753">
        <ele>1097.14</ele>
        <time>2022-06-14T09:41:21.000Z</time>
      </trkpt>
      <trkpt lat="46.21483" lon="6.55752">
        <ele>1098.89</ele>
        <time>2022-06-14T09:41:34.000Z</time>
      </trkpt>
      <trkpt lat="46.21483" lon="6.5575">
        <ele>1100.14</ele>
        <time>2022-06-14T09:41:44.000Z</time>
      </trkpt>
      <trkpt lat="46.21491" lon="6.55739">
        <ele>1100.14</ele>
        <time>2022-06-14T09:41:54.000Z</time>
      </trkpt>
      <trkpt lat="46.21498" lon="6.55731">
        <ele>1100.39</ele>
        <time>2022-06-14T09:42:04.000Z</time>
      </trkpt>
      <trkpt lat="46.21505" lon="6.55718">
        <ele>1100.14</ele>
        <time>2022-06-14T09:42:14.000Z</time>
      </trkpt>
      <trkpt lat="46.2151" lon="6.55714">
        <ele>1097.18</ele>
        <time>2022-06-14T09:42:24.000Z</time>
      </trkpt>
      <trkpt lat="46.21514" lon="6.557">
        <ele>1098.14</ele>
        <time>2022-06-14T09:42:34.000Z</time>
      </trkpt>
      <trkpt lat="46.21515" lon="6.55691">
        <ele>1102.07</ele>
        <time>2022-06-14T09:42:44.000Z</time>
      </trkpt>
      <trkpt lat="46.21532" lon="6.55686">
        <ele>1101.14</ele>
        <time>2022-06-14T09:42:54.000Z</time>
      </trkpt>
      <trkpt lat="46.21541" lon="6.55677">
        <ele>1102.08</ele>
        <time>2022-06-14T09:43:04.000Z</time>
      </trkpt>
      <trkpt lat="46.21543" lon="6.55667">
        <ele>1103.89</ele>
        <time>2022-06-14T09:43:14.000Z</time>
      </trkpt>
      <trkpt lat="46.21546" lon="6.55659">
        <ele>1104.89</ele>
        <time>2022-06-14T09:43:24.000Z</time>
      </trkpt>
      <trkpt lat="46.21552" lon="6.55652">
        <ele>1098.47</ele>
        <time>2022-06-14T09:43:34.000Z</time>
      </trkpt>
      <trkpt lat="46.21557" lon="6.55644">
        <ele>1098.14</ele>
        <time>2022-06-14T09:43:44.000Z</time>
      </trkpt>
      <trkpt lat="46.21563" lon="6.5564">
        <ele>1100.14</ele>
        <time>2022-06-14T09:43:54.000Z</time>
      </trkpt>
      <trkpt lat="46.21571" lon="6.55631">
        <ele>1101.89</ele>
        <time>2022-06-14T09:44:04.000Z</time>
      </trkpt>
      <trkpt lat="46.21575" lon="6.55621">
        <ele>1101.14</ele>
        <time>2022-06-14T09:44:14.000Z</time>
      </trkpt>
      <trkpt lat="46.21585" lon="6.55623">
        <ele>1101.14</ele>
        <time>2022-06-14T09:44:24.000Z</time>
      </trkpt>
      <trkpt lat="46.21591" lon="6.55615">
        <ele>1102.14</ele>
        <time>2022-06-14T09:44:34.000Z</time>
      </trkpt>
      <trkpt lat="46.21598" lon="6.5561">
        <ele>1104.14</ele>
        <time>2022-06-14T09:44:44.000Z</time>
      </trkpt>
      <trkpt lat="46.21596" lon="6.55621">
        <ele>1102.15</ele>
        <time>2022-06-14T09:44:54.000Z</time>
      </trkpt>
      <trkpt lat="46.21594" lon="6.55624">
        <ele>1102.14</ele>
        <time>2022-06-14T09:45:04.000Z</time>
      </trkpt>
      <trkpt lat="46.21591" lon="6.55623">
        <ele>1105.12</ele>
        <time>2022-06-14T09:45:14.000Z</time>
      </trkpt>
      <trkpt lat="46.21592" lon="6.55623">
        <ele>1106.08</ele>
        <time>2022-06-14T09:45:31.000Z</time>
      </trkpt>
      <trkpt lat="46.21596" lon="6.55614">
        <ele>1106.41</ele>
        <time>2022-06-14T09:45:41.000Z</time>
      </trkpt>
      <trkpt lat="46.21606" lon="6.55605">
        <ele>1105.14</ele>
        <time>2022-06-14T09:45:51.000Z</time>
      </trkpt>
      <trkpt lat="46.21614" lon="6.55594">
        <ele>1103.16</ele>
        <time>2022-06-14T09:46:01.000Z</time>
      </trkpt>
      <trkpt lat="46.21619" lon="6.55586">
        <ele>1102.64</ele>
        <time>2022-06-14T09:46:11.000Z</time>
      </trkpt>
      <trkpt lat="46.21629" lon="6.55577">
        <ele>1103.14</ele>
        <time>2022-06-14T09:46:21.000Z</time>
      </trkpt>
      <trkpt lat="46.21639" lon="6.55571">
        <ele>1104.14</ele>
        <time>2022-06-14T09:46:31.000Z</time>
      </trkpt>
      <trkpt lat="46.21646" lon="6.55566">
        <ele>1106.2</ele>
        <time>2022-06-14T09:46:41.000Z</time>
      </trkpt>
      <trkpt lat="46.21656" lon="6.55559">
        <ele>1107.89</ele>
        <time>2022-06-14T09:46:51.000Z</time>
      </trkpt>
      <trkpt lat="46.21665" lon="6.55556">
        <ele>1108.39</ele>
        <time>2022-06-14T09:47:01.000Z</time>
      </trkpt>
      <trkpt lat="46.21676" lon="6.55549">
        <ele>1108.1</ele>
        <time>2022-06-14T09:47:11.000Z</time>
      </trkpt>
      <trkpt lat="46.21682" lon="6.55544">
        <ele>1109.14</ele>
        <time>2022-06-14T09:47:21.000Z</time>
      </trkpt>
      <trkpt lat="46.21696" lon="6.55545">
        <ele>1105.49</ele>
        <time>2022-06-14T09:47:31.000Z</time>
      </trkpt>
      <trkpt lat="46.21703" lon="6.5554">
        <ele>1099.7</ele>
        <time>2022-06-14T09:47:41.000Z</time>
      </trkpt>
      <trkpt lat="46.21708" lon="6.55532">
        <ele>1099.08</ele>
        <time>2022-06-14T09:47:51.000Z</time>
      </trkpt>
      <trkpt lat="46.2172" lon="6.55528">
        <ele>1101.13</ele>
        <time>2022-06-14T09:48:01.000Z</time>
      </trkpt>
      <trkpt lat="46.21731" lon="6.55521">
        <ele>1102.14</ele>
        <time>2022-06-14T09:48:11.000Z</time>
      </trkpt>
      <trkpt lat="46.21741" lon="6.55512">
        <ele>1100.14</ele>
        <time>2022-06-14T09:48:21.000Z</time>
      </trkpt>
      <trkpt lat="46.21749" lon="6.55506">
        <ele>1100.15</ele>
        <time>2022-06-14T09:48:31.000Z</time>
      </trkpt>
      <trkpt lat="46.21759" lon="6.55505">
        <ele>1101.89</ele>
        <time>2022-06-14T09:48:41.000Z</time>
      </trkpt>
      <trkpt lat="46.21772" lon="6.55503">
        <ele>1103.14</ele>
        <time>2022-06-14T09:48:51.000Z</time>
      </trkpt>
      <trkpt lat="46.21772" lon="6.55513">
        <ele>1100.47</ele>
        <time>2022-06-14T09:49:01.000Z</time>
      </trkpt>
      <trkpt lat="46.2177" lon="6.55515">
        <ele>1098.14</ele>
        <time>2022-06-14T09:49:11.000Z</time>
      </trkpt>
      <trkpt lat="46.21774" lon="6.55515">
        <ele>1097.15</ele>
        <time>2022-06-14T09:49:21.000Z</time>
      </trkpt>
      <trkpt lat="46.21792" lon="6.55508">
        <ele>1094.16</ele>
        <time>2022-06-14T09:49:31.000Z</time>
      </trkpt>
      <trkpt lat="46.21795" lon="6.55523">
        <ele>1092.15</ele>
        <time>2022-06-14T09:49:41.000Z</time>
      </trkpt>
      <trkpt lat="46.21793" lon="6.55533">
        <ele>1087.9</ele>
        <time>2022-06-14T09:49:51.000Z</time>
      </trkpt>
      <trkpt lat="46.21792" lon="6.55532">
        <ele>1088.14</ele>
        <time>2022-06-14T09:50:04.000Z</time>
      </trkpt>
      <trkpt lat="46.2179" lon="6.55532">
        <ele>1090.14</ele>
        <time>2022-06-14T09:50:14.000Z</time>
      </trkpt>
      <trkpt lat="46.21791" lon="6.55533">
        <ele>1089.39</ele>
        <time>2022-06-14T09:50:25.000Z</time>
      </trkpt>
      <trkpt lat="46.21791" lon="6.55537">
        <ele>1087.15</ele>
        <time>2022-06-14T09:50:35.000Z</time>
      </trkpt>
      <trkpt lat="46.21791" lon="6.55542">
        <ele>1089.14</ele>
        <time>2022-06-14T09:50:45.000Z</time>
      </trkpt>
      <trkpt lat="46.21785" lon="6.55543">
        <ele>1089.16</ele>
        <time>2022-06-14T09:50:55.000Z</time>
      </trkpt>
      <trkpt lat="46.21782" lon="6.55541">
        <ele>1087.27</ele>
        <time>2022-06-14T09:51:05.000Z</time>
      </trkpt>
      <trkpt lat="46.21785" lon="6.55536">
        <ele>1085.14</ele>
        <time>2022-06-14T09:51:15.000Z</time>
      </trkpt>
      <trkpt lat="46.2179" lon="6.55538">
        <ele>1085.16</ele>
        <time>2022-06-14T09:51:25.000Z</time>
      </trkpt>
      <trkpt lat="46.21789" lon="6.55538">
        <ele>1084.39</ele>
        <time>2022-06-14T09:51:38.000Z</time>
      </trkpt>
      <trkpt lat="46.2179" lon="6.55537">
        <ele>1085.14</ele>
        <time>2022-06-14T09:51:48.000Z</time>
      </trkpt>
      <trkpt lat="46.2179" lon="6.55533">
        <ele>1087.02</ele>
        <time>2022-06-14T09:51:58.000Z</time>
      </trkpt>
      <trkpt lat="46.21792" lon="6.55534">
        <ele>1087.16</ele>
        <time>2022-06-14T09:52:08.000Z</time>
      </trkpt>
      <trkpt lat="46.21793" lon="6.55533">
        <ele>1090.13</ele>
        <time>2022-06-14T09:52:18.000Z</time>
      </trkpt>
      <trkpt lat="46.21798" lon="6.55528">
        <ele>1092.89</ele>
        <time>2022-06-14T09:52:28.000Z</time>
      </trkpt>
      <trkpt lat="46.21804" lon="6.55515">
        <ele>1092.14</ele>
        <time>2022-06-14T09:52:38.000Z</time>
      </trkpt>
      <trkpt lat="46.21811" lon="6.55508">
        <ele>1094.89</ele>
        <time>2022-06-14T09:52:48.000Z</time>
      </trkpt>
      <trkpt lat="46.21825" lon="6.55502">
        <ele>1090.16</ele>
        <time>2022-06-14T09:52:58.000Z</time>
      </trkpt>
      <trkpt lat="46.21833" lon="6.55501">
        <ele>1091.88</ele>
        <time>2022-06-14T09:53:08.000Z</time>
      </trkpt>
      <trkpt lat="46.21845" lon="6.55503">
        <ele>1093.14</ele>
        <time>2022-06-14T09:53:18.000Z</time>
      </trkpt>
      <trkpt lat="46.21853" lon="6.555">
        <ele>1093.33</ele>
        <time>2022-06-14T09:53:28.000Z</time>
      </trkpt>
      <trkpt lat="46.2186" lon="6.55506">
        <ele>1096.08</ele>
        <time>2022-06-14T09:53:38.000Z</time>
      </trkpt>
      <trkpt lat="46.21858" lon="6.55522">
        <ele>1096.14</ele>
        <time>2022-06-14T09:53:48.000Z</time>
      </trkpt>
      <trkpt lat="46.21859" lon="6.55523">
        <ele>1096.14</ele>
        <time>2022-06-14T09:53:58.000Z</time>
      </trkpt>
      <trkpt lat="46.21855" lon="6.55524">
        <ele>1096.14</ele>
        <time>2022-06-14T09:54:08.000Z</time>
      </trkpt>
      <trkpt lat="46.21853" lon="6.55528">
        <ele>1094.14</ele>
        <time>2022-06-14T09:54:18.000Z</time>
      </trkpt>
      <trkpt lat="46.21856" lon="6.55527">
        <ele>1094.16</ele>
        <time>2022-06-14T09:54:28.000Z</time>
      </trkpt>
      <trkpt lat="46.21859" lon="6.55523">
        <ele>1095.14</ele>
        <time>2022-06-14T09:54:38.000Z</time>
      </trkpt>
      <trkpt lat="46.21862" lon="6.55519">
        <ele>1095.14</ele>
        <time>2022-06-14T09:54:48.000Z</time>
      </trkpt>
      <trkpt lat="46.2186" lon="6.55523">
        <ele>1096.14</ele>
        <time>2022-06-14T09:54:58.000Z</time>
      </trkpt>
      <trkpt lat="46.21854" lon="6.55541">
        <ele>1099.12</ele>
        <time>2022-06-14T09:55:08.000Z</time>
      </trkpt>
      <trkpt lat="46.21859" lon="6.55536">
        <ele>1101.07</ele>
        <time>2022-06-14T09:55:18.000Z</time>
      </trkpt>
      <trkpt lat="46.2186" lon="6.55531">
        <ele>1101.22</ele>
        <time>2022-06-14T09:55:28.000Z</time>
      </trkpt>
      <trkpt lat="46.21859" lon="6.55531">
        <ele>1101.16</ele>
        <time>2022-06-14T09:55:39.000Z</time>
      </trkpt>
      <trkpt lat="46.21851" lon="6.55545">
        <ele>1099.39</ele>
        <time>2022-06-14T09:55:49.000Z</time>
      </trkpt>
      <trkpt lat="46.21845" lon="6.5556">
        <ele>1098.15</ele>
        <time>2022-06-14T09:55:59.000Z</time>
      </trkpt>
      <trkpt lat="46.21847" lon="6.55572">
        <ele>1097.14</ele>
        <time>2022-06-14T09:56:09.000Z</time>
      </trkpt>
      <trkpt lat="46.21844" lon="6.55589">
        <ele>1096.21</ele>
        <time>2022-06-14T09:56:19.000Z</time>
      </trkpt>
      <trkpt lat="46.21835" lon="6.55605">
        <ele>1094.14</ele>
        <time>2022-06-14T09:56:29.000Z</time>
      </trkpt>
      <trkpt lat="46.21828" lon="6.5562">
        <ele>1094.14</ele>
        <time>2022-06-14T09:56:39.000Z</time>
      </trkpt>
      <trkpt lat="46.21827" lon="6.55634">
        <ele>1094.89</ele>
        <time>2022-06-14T09:56:49.000Z</time>
      </trkpt>
      <trkpt lat="46.21826" lon="6.55638">
        <ele>1095.14</ele>
        <time>2022-06-14T09:56:59.000Z</time>
      </trkpt>
      <trkpt lat="46.21824" lon="6.55642">
        <ele>1097.11</ele>
        <time>2022-06-14T09:57:09.000Z</time>
      </trkpt>
      <trkpt lat="46.2182" lon="6.55645">
        <ele>1097.14</ele>
        <time>2022-06-14T09:57:19.000Z</time>
      </trkpt>
      <trkpt lat="46.2182" lon="6.55642">
        <ele>1097.14</ele>
        <time>2022-06-14T09:57:29.000Z</time>
      </trkpt>
      <trkpt lat="46.21819" lon="6.55642">
        <ele>1102.13</ele>
        <time>2022-06-14T09:57:46.000Z</time>
      </trkpt>
      <trkpt lat="46.21821" lon="6.55638">
        <ele>1101.16</ele>
        <time>2022-06-14T09:57:56.000Z</time>
      </trkpt>
      <trkpt lat="46.21822" lon="6.55634">
        <ele>1097.14</ele>
        <time>2022-06-14T09:58:06.000Z</time>
      </trkpt>
      <trkpt lat="46.2182" lon="6.55631">
        <ele>1093.89</ele>
        <time>2022-06-14T09:58:16.000Z</time>
      </trkpt>
      <trkpt lat="46.21822" lon="6.5564">
        <ele>1092.14</ele>
        <time>2022-06-14T09:58:26.000Z</time>
      </trkpt>
      <trkpt lat="46.21819" lon="6.55643">
        <ele>1092.15</ele>
        <time>2022-06-14T09:58:36.000Z</time>
      </trkpt>
      <trkpt lat="46.21805" lon="6.55649">
        <ele>1091.14</ele>
        <time>2022-06-14T09:58:46.000Z</time>
      </trkpt>
      <trkpt lat="46.21797" lon="6.55653">
        <ele>1089.14</ele>
        <time>2022-06-14T09:58:56.000Z</time>
      </trkpt>
      <trkpt lat="46.21797" lon="6.55661">
        <ele>1089.15</ele>
        <time>2022-06-14T09:59:06.000Z</time>
      </trkpt>
      <trkpt lat="46.21798" lon="6.55659">
        <ele>1090.89</ele>
        <time>2022-06-14T09:59:16.000Z</time>
      </trkpt>
      <trkpt lat="46.21802" lon="6.55656">
        <ele>1093.14</ele>
        <time>2022-06-14T09:59:26.000Z</time>
      </trkpt>
      <trkpt lat="46.21803" lon="6.55664">
        <ele>1094.95</ele>
        <time>2022-06-14T09:59:36.000Z</time>
      </trkpt>
      <trkpt lat="46.21796" lon="6.55681">
        <ele>1093.16</ele>
        <time>2022-06-14T09:59:46.000Z</time>
      </trkpt>
      <trkpt lat="46.21786" lon="6.55695">
        <ele>1092.2</ele>
        <time>2022-06-14T09:59:56.000Z</time>
      </trkpt>
      <trkpt lat="46.21778" lon="6.557">
        <ele>1090.14</ele>
        <time>2022-06-14T10:00:06.000Z</time>
      </trkpt>
      <trkpt lat="46.21772" lon="6.55701">
        <ele>1091.07</ele>
        <time>2022-06-14T10:00:16.000Z</time>
      </trkpt>
      <trkpt lat="46.21763" lon="6.55704">
        <ele>1091.14</ele>
        <time>2022-06-14T10:00:26.000Z</time>
      </trkpt>
      <trkpt lat="46.2175" lon="6.55718">
        <ele>1093.08</ele>
        <time>2022-06-14T10:00:36.000Z</time>
      </trkpt>
      <trkpt lat="46.21749" lon="6.55726">
        <ele>1094.15</ele>
        <time>2022-06-14T10:00:46.000Z</time>
      </trkpt>
      <trkpt lat="46.21748" lon="6.55725">
        <ele>1093.14</ele>
        <time>2022-06-14T10:00:56.000Z</time>
      </trkpt>
      <trkpt lat="46.21745" lon="6.55727">
        <ele>1094.13</ele>
        <time>2022-06-14T10:01:06.000Z</time>
      </trkpt>
      <trkpt lat="46.21731" lon="6.55738">
        <ele>1092.4</ele>
        <time>2022-06-14T10:01:16.000Z</time>
      </trkpt>
      <trkpt lat="46.21723" lon="6.55751">
        <ele>1085.16</ele>
        <time>2022-06-14T10:01:26.000Z</time>
      </trkpt>
      <trkpt lat="46.21717" lon="6.5576">
        <ele>1085.19</ele>
        <time>2022-06-14T10:01:36.000Z</time>
      </trkpt>
      <trkpt lat="46.21718" lon="6.55758">
        <ele>1086.14</ele>
        <time>2022-06-14T10:01:46.000Z</time>
      </trkpt>
      <trkpt lat="46.21715" lon="6.5576">
        <ele>1086.14</ele>
        <time>2022-06-14T10:01:56.000Z</time>
      </trkpt>
      <trkpt lat="46.21715" lon="6.55762">
        <ele>1086.14</ele>
        <time>2022-06-14T10:02:06.000Z</time>
      </trkpt>
      <trkpt lat="46.21702" lon="6.55768">
        <ele>1088.08</ele>
        <time>2022-06-14T10:02:16.000Z</time>
      </trkpt>
      <trkpt lat="46.21696" lon="6.55767">
        <ele>1089.12</ele>
        <time>2022-06-14T10:02:26.000Z</time>
      </trkpt>
      <trkpt lat="46.21694" lon="6.55763">
        <ele>1088.95</ele>
        <time>2022-06-14T10:02:36.000Z</time>
      </trkpt>
      <trkpt lat="46.21695" lon="6.55765">
        <ele>1087.39</ele>
        <time>2022-06-14T10:02:47.000Z</time>
      </trkpt>
      <trkpt lat="46.21689" lon="6.55769">
        <ele>1085.14</ele>
        <time>2022-06-14T10:02:57.000Z</time>
      </trkpt>
      <trkpt lat="46.2169" lon="6.55768">
        <ele>1085.33</ele>
        <time>2022-06-14T10:03:07.000Z</time>
      </trkpt>
      <trkpt lat="46.21699" lon="6.55773">
        <ele>1083.89</ele>
        <time>2022-06-14T10:03:17.000Z</time>
      </trkpt>
      <trkpt lat="46.21702" lon="6.55788">
        <ele>1085.14</ele>
        <time>2022-06-14T10:03:27.000Z</time>
      </trkpt>
      <trkpt lat="46.21704" lon="6.55805">
        <ele>1084.38</ele>
        <time>2022-06-14T10:03:37.000Z</time>
      </trkpt>
      <trkpt lat="46.21709" lon="6.55809">
        <ele>1086.08</ele>
        <time>2022-06-14T10:03:47.000Z</time>
      </trkpt>
      <trkpt lat="46.21718" lon="6.55814">
        <ele>1086.14</ele>
        <time>2022-06-14T10:03:57.000Z</time>
      </trkpt>
      <trkpt lat="46.21728" lon="6.5582">
        <ele>1088.83</ele>
        <time>2022-06-14T10:04:07.000Z</time>
      </trkpt>
      <trkpt lat="46.21738" lon="6.55822">
        <ele>1086.16</ele>
        <time>2022-06-14T10:04:17.000Z</time>
      </trkpt>
      <trkpt lat="46.21748" lon="6.55826">
        <ele>1086.14</ele>
        <time>2022-06-14T10:04:27.000Z</time>
      </trkpt>
      <trkpt lat="46.21753" lon="6.55827">
        <ele>1087.14</ele>
        <time>2022-06-14T10:04:37.000Z</time>
      </trkpt>
      <trkpt lat="46.21765" lon="6.55829">
        <ele>1089.14</ele>
        <time>2022-06-14T10:04:47.000Z</time>
      </trkpt>
      <trkpt lat="46.21776" lon="6.55823">
        <ele>1092.07</ele>
        <time>2022-06-14T10:04:57.000Z</time>
      </trkpt>
      <trkpt lat="46.21792" lon="6.55822">
        <ele>1090.02</ele>
        <time>2022-06-14T10:05:07.000Z</time>
      </trkpt>
      <trkpt lat="46.21799" lon="6.55827">
        <ele>1086.2</ele>
        <time>2022-06-14T10:05:17.000Z</time>
      </trkpt>
      <trkpt lat="46.21799" lon="6.55829">
        <ele>1086.89</ele>
        <time>2022-06-14T10:05:27.000Z</time>
      </trkpt>
      <trkpt lat="46.21804" lon="6.55831">
        <ele>1088.89</ele>
        <time>2022-06-14T10:05:37.000Z</time>
      </trkpt>
      <trkpt lat="46.21818" lon="6.55832">
        <ele>1091.13</ele>
        <time>2022-06-14T10:05:47.000Z</time>
      </trkpt>
      <trkpt lat="46.21828" lon="6.5583">
        <ele>1092.14</ele>
        <time>2022-06-14T10:05:57.000Z</time>
      </trkpt>
      <trkpt lat="46.21839" lon="6.55829">
        <ele>1091.39</ele>
        <time>2022-06-14T10:06:07.000Z</time>
      </trkpt>
      <trkpt lat="46.21849" lon="6.55821">
        <ele>1091.91</ele>
        <time>2022-06-14T10:06:17.000Z</time>
      </trkpt>
      <trkpt lat="46.21858" lon="6.55814">
        <ele>1090.21</ele>
        <time>2022-06-14T10:06:27.000Z</time>
      </trkpt>
      <trkpt lat="46.21861" lon="6.55798">
        <ele>1091.14</ele>
        <time>2022-06-14T10:06:37.000Z</time>
      </trkpt>
      <trkpt lat="46.21861" lon="6.55793">
        <ele>1090.14</ele>
        <time>2022-06-14T10:06:47.000Z</time>
      </trkpt>
      <trkpt lat="46.21861" lon="6.55791">
        <ele>1089.14</ele>
        <time>2022-06-14T10:06:57.000Z</time>
      </trkpt>
      <trkpt lat="46.21862" lon="6.55789">
        <ele>1089.64</ele>
        <time>2022-06-14T10:07:09.000Z</time>
      </trkpt>
      <trkpt lat="46.21858" lon="6.55789">
        <ele>1092.14</ele>
        <time>2022-06-14T10:07:19.000Z</time>
      </trkpt>
      <trkpt lat="46.21858" lon="6.5579">
        <ele>1092.14</ele>
        <time>2022-06-14T10:07:48.000Z</time>
      </trkpt>
      <trkpt lat="46.2186" lon="6.5579">
        <ele>1092.21</ele>
        <time>2022-06-14T10:07:58.000Z</time>
      </trkpt>
      <trkpt lat="46.21859" lon="6.55789">
        <ele>1091.14</ele>
        <time>2022-06-14T10:08:20.000Z</time>
      </trkpt>
      <trkpt lat="46.21859" lon="6.55791">
        <ele>1091.14</ele>
        <time>2022-06-14T10:08:47.000Z</time>
      </trkpt>
      <trkpt lat="46.2186" lon="6.55791">
        <ele>1092.14</ele>
        <time>2022-06-14T10:08:57.000Z</time>
      </trkpt>
      <trkpt lat="46.21859" lon="6.5579">
        <ele>1090.64</ele>
        <time>2022-06-14T10:09:13.000Z</time>
      </trkpt>
      <trkpt lat="46.2186" lon="6.55793">
        <ele>1091.14</ele>
        <time>2022-06-14T10:09:23.000Z</time>
      </trkpt>
      <trkpt lat="46.21861" lon="6.55795">
        <ele>1091.14</ele>
        <time>2022-06-14T10:09:33.000Z</time>
      </trkpt>
      <trkpt lat="46.2186" lon="6.55794">
        <ele>1088.14</ele>
        <time>2022-06-14T10:09:43.000Z</time>
      </trkpt>
      <trkpt lat="46.2186" lon="6.55792">
        <ele>1086.17</ele>
        <time>2022-06-14T10:09:46.000Z</time>
      </trkpt>
    </trkseg>
  </trk>
</gpx>